<?xml version="1.0" encoding="UTF-8" standalone="no" ?>
<gpx xmlns="http://www.topografix.com/GPX/1/1" xmlns:xsi="http://www.w3.org/2001/XMLSchema-instance" xsi:schemaLocation="http://www.topografix.com/GPX/1/1 http://www.topografix.com/GPX/1/1/gpx.xsd" version="1.1" creator="VisuGPX - https://www.visugpx.com">
  <metadata>
    <name>Roquefavour</name>
    <desc><![CDATA[Pour Gransrandonnée proposée par randoJP]]></desc>
  </metadata>
  <trk>
    <name><![CDATA[Roquefavour]]></name>
    <trkseg>
      <trkpt lat="43.51642" lon="5.31436">
        <ele>92.904541015625</ele>
        <time>2019-02-24T09:00:44Z</time>
      </trkpt>
      <trkpt lat="43.51642" lon="5.31436">
        <ele>92.904541015625</ele>
        <time>2019-02-24T09:00:45Z</time>
      </trkpt>
      <trkpt lat="43.51642" lon="5.31436">
        <ele>92.423950195312</ele>
        <time>2019-02-24T09:00:46Z</time>
      </trkpt>
      <trkpt lat="43.51641" lon="5.31439">
        <ele>93.385131835938</ele>
        <time>2019-02-24T09:01:08Z</time>
      </trkpt>
      <trkpt lat="43.51632" lon="5.31465">
        <ele>93.385131835938</ele>
        <time>2019-02-24T09:01:29Z</time>
      </trkpt>
      <trkpt lat="43.51631" lon="5.31474">
        <ele>93.385131835938</ele>
        <time>2019-02-24T09:01:34Z</time>
      </trkpt>
      <trkpt lat="43.51634" lon="5.31477">
        <ele>93.385131835938</ele>
        <time>2019-02-24T09:01:37Z</time>
      </trkpt>
      <trkpt lat="43.51635" lon="5.31479">
        <ele>93.865844726562</ele>
        <time>2019-02-24T09:01:39Z</time>
      </trkpt>
      <trkpt lat="43.51641" lon="5.31483">
        <ele>93.865844726562</ele>
        <time>2019-02-24T09:01:44Z</time>
      </trkpt>
      <trkpt lat="43.51659" lon="5.31509">
        <ele>93.385131835938</ele>
        <time>2019-02-24T09:01:59Z</time>
      </trkpt>
      <trkpt lat="43.51659" lon="5.31507">
        <ele>93.865844726562</ele>
        <time>2019-02-24T09:02:14Z</time>
      </trkpt>
      <trkpt lat="43.51659" lon="5.31507">
        <ele>93.865844726562</ele>
        <time>2019-02-24T09:02:21Z</time>
      </trkpt>
      <trkpt lat="43.51662" lon="5.31529">
        <ele>92.904541015625</ele>
        <time>2019-02-24T09:02:38Z</time>
      </trkpt>
      <trkpt lat="43.51653" lon="5.31563">
        <ele>93.385131835938</ele>
        <time>2019-02-24T09:02:59Z</time>
      </trkpt>
      <trkpt lat="43.51642" lon="5.31585">
        <ele>93.385131835938</ele>
        <time>2019-02-24T09:03:15Z</time>
      </trkpt>
      <trkpt lat="43.51628" lon="5.31612">
        <ele>93.385131835938</ele>
        <time>2019-02-24T09:03:34Z</time>
      </trkpt>
      <trkpt lat="43.51625" lon="5.31616">
        <ele>92.904541015625</ele>
        <time>2019-02-24T09:03:38Z</time>
      </trkpt>
      <trkpt lat="43.51622" lon="5.31617">
        <ele>92.904541015625</ele>
        <time>2019-02-24T09:03:40Z</time>
      </trkpt>
      <trkpt lat="43.51614" lon="5.31632">
        <ele>92.423950195312</ele>
        <time>2019-02-24T09:03:50Z</time>
      </trkpt>
      <trkpt lat="43.51594" lon="5.31671">
        <ele>92.423950195312</ele>
        <time>2019-02-24T09:04:16Z</time>
      </trkpt>
      <trkpt lat="43.51592" lon="5.31674">
        <ele>92.423950195312</ele>
        <time>2019-02-24T09:04:18Z</time>
      </trkpt>
      <trkpt lat="43.5159" lon="5.31675">
        <ele>92.423950195312</ele>
        <time>2019-02-24T09:04:20Z</time>
      </trkpt>
      <trkpt lat="43.51589" lon="5.31678">
        <ele>92.904541015625</ele>
        <time>2019-02-24T09:04:22Z</time>
      </trkpt>
      <trkpt lat="43.51585" lon="5.31679">
        <ele>91.943237304688</ele>
        <time>2019-02-24T09:04:26Z</time>
      </trkpt>
      <trkpt lat="43.51576" lon="5.31698">
        <ele>92.904541015625</ele>
        <time>2019-02-24T09:04:38Z</time>
      </trkpt>
      <trkpt lat="43.51563" lon="5.31716">
        <ele>92.904541015625</ele>
        <time>2019-02-24T09:04:53Z</time>
      </trkpt>
      <trkpt lat="43.51562" lon="5.31719">
        <ele>92.904541015625</ele>
        <time>2019-02-24T09:04:55Z</time>
      </trkpt>
      <trkpt lat="43.51547" lon="5.31746">
        <ele>93.385131835938</ele>
        <time>2019-02-24T09:05:12Z</time>
      </trkpt>
      <trkpt lat="43.5154" lon="5.31758">
        <ele>92.904541015625</ele>
        <time>2019-02-24T09:05:20Z</time>
      </trkpt>
      <trkpt lat="43.51536" lon="5.31763">
        <ele>92.904541015625</ele>
        <time>2019-02-24T09:05:24Z</time>
      </trkpt>
      <trkpt lat="43.51531" lon="5.31766">
        <ele>92.904541015625</ele>
        <time>2019-02-24T09:05:29Z</time>
      </trkpt>
      <trkpt lat="43.51529" lon="5.31768">
        <ele>92.904541015625</ele>
        <time>2019-02-24T09:05:31Z</time>
      </trkpt>
      <trkpt lat="43.5152" lon="5.31782">
        <ele>93.385131835938</ele>
        <time>2019-02-24T09:05:44Z</time>
      </trkpt>
      <trkpt lat="43.51507" lon="5.31798">
        <ele>92.904541015625</ele>
        <time>2019-02-24T09:05:56Z</time>
      </trkpt>
      <trkpt lat="43.51493" lon="5.31815">
        <ele>93.385131835938</ele>
        <time>2019-02-24T09:06:12Z</time>
      </trkpt>
      <trkpt lat="43.51481" lon="5.31832">
        <ele>92.904541015625</ele>
        <time>2019-02-24T09:06:24Z</time>
      </trkpt>
      <trkpt lat="43.51477" lon="5.3184">
        <ele>93.385131835938</ele>
        <time>2019-02-24T09:06:28Z</time>
      </trkpt>
      <trkpt lat="43.51476" lon="5.31844">
        <ele>93.385131835938</ele>
        <time>2019-02-24T09:06:31Z</time>
      </trkpt>
      <trkpt lat="43.51472" lon="5.31849">
        <ele>93.385131835938</ele>
        <time>2019-02-24T09:06:35Z</time>
      </trkpt>
      <trkpt lat="43.51457" lon="5.31877">
        <ele>93.385131835938</ele>
        <time>2019-02-24T09:06:52Z</time>
      </trkpt>
      <trkpt lat="43.51445" lon="5.31901">
        <ele>93.385131835938</ele>
        <time>2019-02-24T09:07:05Z</time>
      </trkpt>
      <trkpt lat="43.51436" lon="5.31904">
        <ele>93.385131835938</ele>
        <time>2019-02-24T09:07:18Z</time>
      </trkpt>
      <trkpt lat="43.51418" lon="5.31933">
        <ele>94.346557617188</ele>
        <time>2019-02-24T09:07:32Z</time>
      </trkpt>
      <trkpt lat="43.51419" lon="5.31943">
        <ele>94.346557617188</ele>
        <time>2019-02-24T09:07:37Z</time>
      </trkpt>
      <trkpt lat="43.51409" lon="5.31963">
        <ele>96.269287109375</ele>
        <time>2019-02-24T09:07:52Z</time>
      </trkpt>
      <trkpt lat="43.51407" lon="5.31966">
        <ele>96.269287109375</ele>
        <time>2019-02-24T09:07:55Z</time>
      </trkpt>
      <trkpt lat="43.51398" lon="5.31991">
        <ele>97.23046875</ele>
        <time>2019-02-24T09:08:12Z</time>
      </trkpt>
      <trkpt lat="43.51393" lon="5.31999">
        <ele>97.711181640625</ele>
        <time>2019-02-24T09:08:24Z</time>
      </trkpt>
      <trkpt lat="43.51392" lon="5.32001">
        <ele>97.711181640625</ele>
        <time>2019-02-24T09:08:27Z</time>
      </trkpt>
      <trkpt lat="43.51379" lon="5.32013">
        <ele>97.23046875</ele>
        <time>2019-02-24T09:08:45Z</time>
      </trkpt>
      <trkpt lat="43.51374" lon="5.32009">
        <ele>97.711181640625</ele>
        <time>2019-02-24T09:08:52Z</time>
      </trkpt>
      <trkpt lat="43.51366" lon="5.31984">
        <ele>98.19189453125</ele>
        <time>2019-02-24T09:09:06Z</time>
      </trkpt>
      <trkpt lat="43.51365" lon="5.31983">
        <ele>98.19189453125</ele>
        <time>2019-02-24T09:09:07Z</time>
      </trkpt>
      <trkpt lat="43.51355" lon="5.31973">
        <ele>100.11450195312</ele>
        <time>2019-02-24T09:09:21Z</time>
      </trkpt>
      <trkpt lat="43.51343" lon="5.3196">
        <ele>102.037109375</ele>
        <time>2019-02-24T09:09:39Z</time>
      </trkpt>
      <trkpt lat="43.5134" lon="5.31962">
        <ele>101.07568359375</ele>
        <time>2019-02-24T09:09:42Z</time>
      </trkpt>
      <trkpt lat="43.5134" lon="5.31965">
        <ele>101.07568359375</ele>
        <time>2019-02-24T09:09:44Z</time>
      </trkpt>
      <trkpt lat="43.51332" lon="5.31979">
        <ele>101.55639648438</ele>
        <time>2019-02-24T09:10:00Z</time>
      </trkpt>
      <trkpt lat="43.5133" lon="5.31976">
        <ele>101.55639648438</ele>
        <time>2019-02-24T09:10:04Z</time>
      </trkpt>
      <trkpt lat="43.51319" lon="5.3197">
        <ele>102.037109375</ele>
        <time>2019-02-24T09:10:20Z</time>
      </trkpt>
      <trkpt lat="43.51316" lon="5.31968">
        <ele>102.51770019531</ele>
        <time>2019-02-24T09:10:25Z</time>
      </trkpt>
      <trkpt lat="43.51301" lon="5.3197">
        <ele>103.47900390625</ele>
        <time>2019-02-24T09:10:36Z</time>
      </trkpt>
      <trkpt lat="43.51281" lon="5.31967">
        <ele>104.4404296875</ele>
        <time>2019-02-24T09:10:55Z</time>
      </trkpt>
      <trkpt lat="43.51255" lon="5.31958">
        <ele>105.40173339844</ele>
        <time>2019-02-24T09:11:16Z</time>
      </trkpt>
      <trkpt lat="43.51243" lon="5.31954">
        <ele>106.36303710938</ele>
        <time>2019-02-24T09:11:24Z</time>
      </trkpt>
      <trkpt lat="43.51237" lon="5.31955">
        <ele>105.88244628906</ele>
        <time>2019-02-24T09:11:28Z</time>
      </trkpt>
      <trkpt lat="43.51232" lon="5.31956">
        <ele>107.32434082031</ele>
        <time>2019-02-24T09:11:40Z</time>
      </trkpt>
      <trkpt lat="43.5123" lon="5.31958">
        <ele>107.80505371094</ele>
        <time>2019-02-24T09:11:47Z</time>
      </trkpt>
      <trkpt lat="43.51218" lon="5.31953">
        <ele>108.76623535156</ele>
        <time>2019-02-24T09:11:56Z</time>
      </trkpt>
      <trkpt lat="43.51193" lon="5.31943">
        <ele>109.24694824219</ele>
        <time>2019-02-24T09:12:13Z</time>
      </trkpt>
      <trkpt lat="43.51174" lon="5.31934">
        <ele>111.16955566406</ele>
        <time>2019-02-24T09:12:30Z</time>
      </trkpt>
      <trkpt lat="43.51157" lon="5.31925">
        <ele>112.61157226562</ele>
        <time>2019-02-24T09:12:49Z</time>
      </trkpt>
      <trkpt lat="43.51149" lon="5.31923">
        <ele>113.09228515625</ele>
        <time>2019-02-24T09:12:58Z</time>
      </trkpt>
      <trkpt lat="43.51147" lon="5.31922">
        <ele>113.57299804688</ele>
        <time>2019-02-24T09:13:01Z</time>
      </trkpt>
      <trkpt lat="43.51142" lon="5.3192">
        <ele>114.05358886719</ele>
        <time>2019-02-24T09:13:05Z</time>
      </trkpt>
      <trkpt lat="43.51135" lon="5.31914">
        <ele>114.05358886719</ele>
        <time>2019-02-24T09:13:11Z</time>
      </trkpt>
      <trkpt lat="43.51127" lon="5.31908">
        <ele>115.01489257812</ele>
        <time>2019-02-24T09:13:22Z</time>
      </trkpt>
      <trkpt lat="43.51121" lon="5.31901">
        <ele>115.97619628906</ele>
        <time>2019-02-24T09:13:32Z</time>
      </trkpt>
      <trkpt lat="43.51118" lon="5.31901">
        <ele>116.45678710938</ele>
        <time>2019-02-24T09:13:39Z</time>
      </trkpt>
      <trkpt lat="43.51113" lon="5.319">
        <ele>116.45678710938</ele>
        <time>2019-02-24T09:13:43Z</time>
      </trkpt>
      <trkpt lat="43.51095" lon="5.31892">
        <ele>117.89880371094</ele>
        <time>2019-02-24T09:13:59Z</time>
      </trkpt>
      <trkpt lat="43.51086" lon="5.31887">
        <ele>118.37939453125</ele>
        <time>2019-02-24T09:14:07Z</time>
      </trkpt>
      <trkpt lat="43.51079" lon="5.31881">
        <ele>119.82141113281</ele>
        <time>2019-02-24T09:14:17Z</time>
      </trkpt>
      <trkpt lat="43.51069" lon="5.3187">
        <ele>120.30212402344</ele>
        <time>2019-02-24T09:14:30Z</time>
      </trkpt>
      <trkpt lat="43.51063" lon="5.31864">
        <ele>120.78283691406</ele>
        <time>2019-02-24T09:14:37Z</time>
      </trkpt>
      <trkpt lat="43.51055" lon="5.31855">
        <ele>121.744140625</ele>
        <time>2019-02-24T09:14:45Z</time>
      </trkpt>
      <trkpt lat="43.51053" lon="5.31852">
        <ele>122.22473144531</ele>
        <time>2019-02-24T09:14:48Z</time>
      </trkpt>
      <trkpt lat="43.5105" lon="5.31848">
        <ele>122.22473144531</ele>
        <time>2019-02-24T09:14:53Z</time>
      </trkpt>
      <trkpt lat="43.51045" lon="5.31841">
        <ele>122.70544433594</ele>
        <time>2019-02-24T09:15:00Z</time>
      </trkpt>
      <trkpt lat="43.51038" lon="5.3183">
        <ele>124.14733886719</ele>
        <time>2019-02-24T09:15:15Z</time>
      </trkpt>
      <trkpt lat="43.51025" lon="5.31817">
        <ele>124.62805175781</ele>
        <time>2019-02-24T09:15:29Z</time>
      </trkpt>
      <trkpt lat="43.51018" lon="5.3181">
        <ele>125.58935546875</ele>
        <time>2019-02-24T09:15:34Z</time>
      </trkpt>
      <trkpt lat="43.51013" lon="5.31806">
        <ele>126.06994628906</ele>
        <time>2019-02-24T09:15:38Z</time>
      </trkpt>
      <trkpt lat="43.51004" lon="5.31797">
        <ele>126.55065917969</ele>
        <time>2019-02-24T09:15:48Z</time>
      </trkpt>
      <trkpt lat="43.51001" lon="5.31796">
        <ele>127.51196289062</ele>
        <time>2019-02-24T09:15:51Z</time>
      </trkpt>
      <trkpt lat="43.50991" lon="5.31786">
        <ele>127.99255371094</ele>
        <time>2019-02-24T09:16:02Z</time>
      </trkpt>
      <trkpt lat="43.5099" lon="5.31784">
        <ele>127.99255371094</ele>
        <time>2019-02-24T09:16:04Z</time>
      </trkpt>
      <trkpt lat="43.50985" lon="5.31781">
        <ele>128.47338867188</ele>
        <time>2019-02-24T09:16:10Z</time>
      </trkpt>
      <trkpt lat="43.50979" lon="5.31767">
        <ele>129.43469238281</ele>
        <time>2019-02-24T09:16:25Z</time>
      </trkpt>
      <trkpt lat="43.50971" lon="5.3176">
        <ele>130.39599609375</ele>
        <time>2019-02-24T09:16:33Z</time>
      </trkpt>
      <trkpt lat="43.5097" lon="5.31758">
        <ele>130.87670898438</ele>
        <time>2019-02-24T09:16:35Z</time>
      </trkpt>
      <trkpt lat="43.50963" lon="5.31751">
        <ele>131.837890625</ele>
        <time>2019-02-24T09:16:45Z</time>
      </trkpt>
      <trkpt lat="43.50957" lon="5.31739">
        <ele>132.31860351562</ele>
        <time>2019-02-24T09:16:55Z</time>
      </trkpt>
      <trkpt lat="43.50952" lon="5.31731">
        <ele>133.27990722656</ele>
        <time>2019-02-24T09:17:04Z</time>
      </trkpt>
      <trkpt lat="43.50945" lon="5.31724">
        <ele>134.72192382812</ele>
        <time>2019-02-24T09:17:15Z</time>
      </trkpt>
      <trkpt lat="43.50929" lon="5.31717">
        <ele>135.68310546875</ele>
        <time>2019-02-24T09:17:31Z</time>
      </trkpt>
      <trkpt lat="43.50927" lon="5.31715">
        <ele>136.16394042969</ele>
        <time>2019-02-24T09:17:33Z</time>
      </trkpt>
      <trkpt lat="43.5092" lon="5.31712">
        <ele>136.64465332031</ele>
        <time>2019-02-24T09:17:38Z</time>
      </trkpt>
      <trkpt lat="43.50917" lon="5.31712">
        <ele>136.64465332031</ele>
        <time>2019-02-24T09:17:40Z</time>
      </trkpt>
      <trkpt lat="43.50908" lon="5.31705">
        <ele>137.12524414062</ele>
        <time>2019-02-24T09:17:58Z</time>
      </trkpt>
      <trkpt lat="43.50908" lon="5.31706">
        <ele>137.60583496094</ele>
        <time>2019-02-24T09:18:06Z</time>
      </trkpt>
      <trkpt lat="43.50901" lon="5.31697">
        <ele>138.56726074219</ele>
        <time>2019-02-24T09:18:18Z</time>
      </trkpt>
      <trkpt lat="43.50891" lon="5.3168">
        <ele>140.00915527344</ele>
        <time>2019-02-24T09:18:30Z</time>
      </trkpt>
      <trkpt lat="43.50888" lon="5.31666">
        <ele>140.97045898438</ele>
        <time>2019-02-24T09:18:40Z</time>
      </trkpt>
      <trkpt lat="43.5088" lon="5.31656">
        <ele>141.93176269531</ele>
        <time>2019-02-24T09:18:51Z</time>
      </trkpt>
      <trkpt lat="43.50873" lon="5.31648">
        <ele>143.37365722656</ele>
        <time>2019-02-24T09:19:04Z</time>
      </trkpt>
      <trkpt lat="43.50863" lon="5.31635">
        <ele>145.29638671875</ele>
        <time>2019-02-24T09:19:16Z</time>
      </trkpt>
      <trkpt lat="43.50851" lon="5.31626">
        <ele>146.73840332031</ele>
        <time>2019-02-24T09:19:29Z</time>
      </trkpt>
      <trkpt lat="43.50829" lon="5.31619">
        <ele>148.18041992188</ele>
        <time>2019-02-24T09:19:48Z</time>
      </trkpt>
      <trkpt lat="43.50814" lon="5.31612">
        <ele>149.1416015625</ele>
        <time>2019-02-24T09:19:57Z</time>
      </trkpt>
      <trkpt lat="43.50795" lon="5.31608">
        <ele>150.58361816406</ele>
        <time>2019-02-24T09:20:15Z</time>
      </trkpt>
      <trkpt lat="43.5078" lon="5.31608">
        <ele>152.98693847656</ele>
        <time>2019-02-24T09:20:30Z</time>
      </trkpt>
      <trkpt lat="43.50766" lon="5.316">
        <ele>154.42895507812</ele>
        <time>2019-02-24T09:20:45Z</time>
      </trkpt>
      <trkpt lat="43.50754" lon="5.31598">
        <ele>156.3515625</ele>
        <time>2019-02-24T09:21:00Z</time>
      </trkpt>
      <trkpt lat="43.5074" lon="5.31599">
        <ele>158.27416992188</ele>
        <time>2019-02-24T09:21:15Z</time>
      </trkpt>
      <trkpt lat="43.50726" lon="5.31593">
        <ele>160.19689941406</ele>
        <time>2019-02-24T09:21:29Z</time>
      </trkpt>
      <trkpt lat="43.50711" lon="5.31587">
        <ele>162.11950683594</ele>
        <time>2019-02-24T09:21:42Z</time>
      </trkpt>
      <trkpt lat="43.50708" lon="5.31587">
        <ele>162.60009765625</ele>
        <time>2019-02-24T09:21:46Z</time>
      </trkpt>
      <trkpt lat="43.50699" lon="5.31586">
        <ele>164.04211425781</ele>
        <time>2019-02-24T09:21:55Z</time>
      </trkpt>
      <trkpt lat="43.50687" lon="5.3158">
        <ele>165.96472167969</ele>
        <time>2019-02-24T09:22:06Z</time>
      </trkpt>
      <trkpt lat="43.50677" lon="5.31565">
        <ele>167.88732910156</ele>
        <time>2019-02-24T09:22:22Z</time>
      </trkpt>
      <trkpt lat="43.50668" lon="5.31558">
        <ele>168.84875488281</ele>
        <time>2019-02-24T09:22:34Z</time>
      </trkpt>
      <trkpt lat="43.50653" lon="5.31552">
        <ele>171.25207519531</ele>
        <time>2019-02-24T09:22:49Z</time>
      </trkpt>
      <trkpt lat="43.50642" lon="5.31553">
        <ele>171.73266601562</ele>
        <time>2019-02-24T09:23:02Z</time>
      </trkpt>
      <trkpt lat="43.50639" lon="5.3155">
        <ele>172.21325683594</ele>
        <time>2019-02-24T09:23:18Z</time>
      </trkpt>
      <trkpt lat="43.50627" lon="5.3154">
        <ele>172.21325683594</ele>
        <time>2019-02-24T09:23:33Z</time>
      </trkpt>
      <trkpt lat="43.50621" lon="5.31524">
        <ele>173.17468261719</ele>
        <time>2019-02-24T09:23:50Z</time>
      </trkpt>
      <trkpt lat="43.50621" lon="5.31516">
        <ele>173.17468261719</ele>
        <time>2019-02-24T09:23:56Z</time>
      </trkpt>
      <trkpt lat="43.50625" lon="5.31494">
        <ele>173.6552734375</ele>
        <time>2019-02-24T09:24:14Z</time>
      </trkpt>
      <trkpt lat="43.50625" lon="5.31484">
        <ele>173.6552734375</ele>
        <time>2019-02-24T09:24:28Z</time>
      </trkpt>
      <trkpt lat="43.50625" lon="5.31466">
        <ele>173.6552734375</ele>
        <time>2019-02-24T09:24:42Z</time>
      </trkpt>
      <trkpt lat="43.50626" lon="5.31459">
        <ele>173.6552734375</ele>
        <time>2019-02-24T09:24:47Z</time>
      </trkpt>
      <trkpt lat="43.50626" lon="5.31442">
        <ele>173.6552734375</ele>
        <time>2019-02-24T09:24:58Z</time>
      </trkpt>
      <trkpt lat="43.50629" lon="5.31437">
        <ele>173.6552734375</ele>
        <time>2019-02-24T09:25:02Z</time>
      </trkpt>
      <trkpt lat="43.5063" lon="5.31431">
        <ele>173.17468261719</ele>
        <time>2019-02-24T09:25:06Z</time>
      </trkpt>
      <trkpt lat="43.50639" lon="5.31414">
        <ele>172.69396972656</ele>
        <time>2019-02-24T09:25:19Z</time>
      </trkpt>
      <trkpt lat="43.50646" lon="5.31406">
        <ele>172.21325683594</ele>
        <time>2019-02-24T09:25:27Z</time>
      </trkpt>
      <trkpt lat="43.5065" lon="5.31401">
        <ele>172.69396972656</ele>
        <time>2019-02-24T09:25:32Z</time>
      </trkpt>
      <trkpt lat="43.50662" lon="5.31394">
        <ele>173.17468261719</ele>
        <time>2019-02-24T09:25:45Z</time>
      </trkpt>
      <trkpt lat="43.50671" lon="5.31383">
        <ele>172.69396972656</ele>
        <time>2019-02-24T09:25:56Z</time>
      </trkpt>
      <trkpt lat="43.50686" lon="5.3137">
        <ele>173.6552734375</ele>
        <time>2019-02-24T09:26:13Z</time>
      </trkpt>
      <trkpt lat="43.50698" lon="5.31358">
        <ele>174.13586425781</ele>
        <time>2019-02-24T09:26:26Z</time>
      </trkpt>
      <trkpt lat="43.50718" lon="5.3134">
        <ele>174.61657714844</ele>
        <time>2019-02-24T09:26:46Z</time>
      </trkpt>
      <trkpt lat="43.50719" lon="5.31339">
        <ele>174.61657714844</ele>
        <time>2019-02-24T09:26:47Z</time>
      </trkpt>
      <trkpt lat="43.50716" lon="5.31306">
        <ele>174.13586425781</ele>
        <time>2019-02-24T09:27:08Z</time>
      </trkpt>
      <trkpt lat="43.50714" lon="5.31285">
        <ele>173.17468261719</ele>
        <time>2019-02-24T09:27:24Z</time>
      </trkpt>
      <trkpt lat="43.5072" lon="5.31269">
        <ele>172.69396972656</ele>
        <time>2019-02-24T09:27:38Z</time>
      </trkpt>
      <trkpt lat="43.50722" lon="5.31265">
        <ele>172.21325683594</ele>
        <time>2019-02-24T09:27:42Z</time>
      </trkpt>
      <trkpt lat="43.5073" lon="5.31234">
        <ele>170.77136230469</ele>
        <time>2019-02-24T09:28:03Z</time>
      </trkpt>
      <trkpt lat="43.5073" lon="5.31193">
        <ele>169.81005859375</ele>
        <time>2019-02-24T09:28:29Z</time>
      </trkpt>
      <trkpt lat="43.50733" lon="5.31165">
        <ele>169.32946777344</ele>
        <time>2019-02-24T09:28:45Z</time>
      </trkpt>
      <trkpt lat="43.50736" lon="5.31154">
        <ele>168.84875488281</ele>
        <time>2019-02-24T09:28:52Z</time>
      </trkpt>
      <trkpt lat="43.50741" lon="5.3114">
        <ele>169.81005859375</ele>
        <time>2019-02-24T09:29:02Z</time>
      </trkpt>
      <trkpt lat="43.50743" lon="5.31136">
        <ele>169.81005859375</ele>
        <time>2019-02-24T09:29:05Z</time>
      </trkpt>
      <trkpt lat="43.50747" lon="5.31129">
        <ele>170.29064941406</ele>
        <time>2019-02-24T09:29:10Z</time>
      </trkpt>
      <trkpt lat="43.50751" lon="5.31113">
        <ele>170.77136230469</ele>
        <time>2019-02-24T09:29:30Z</time>
      </trkpt>
      <trkpt lat="43.50755" lon="5.31101">
        <ele>171.25207519531</ele>
        <time>2019-02-24T09:29:38Z</time>
      </trkpt>
      <trkpt lat="43.50755" lon="5.31098">
        <ele>170.77136230469</ele>
        <time>2019-02-24T09:29:40Z</time>
      </trkpt>
      <trkpt lat="43.50759" lon="5.31088">
        <ele>170.77136230469</ele>
        <time>2019-02-24T09:29:46Z</time>
      </trkpt>
      <trkpt lat="43.50761" lon="5.31082">
        <ele>171.25207519531</ele>
        <time>2019-02-24T09:29:50Z</time>
      </trkpt>
      <trkpt lat="43.50762" lon="5.31072">
        <ele>170.77136230469</ele>
        <time>2019-02-24T09:29:56Z</time>
      </trkpt>
      <trkpt lat="43.50772" lon="5.31039">
        <ele>169.81005859375</ele>
        <time>2019-02-24T09:30:20Z</time>
      </trkpt>
      <trkpt lat="43.50773" lon="5.31038">
        <ele>169.81005859375</ele>
        <time>2019-02-24T09:30:21Z</time>
      </trkpt>
      <trkpt lat="43.50773" lon="5.31032">
        <ele>169.32946777344</ele>
        <time>2019-02-24T09:30:24Z</time>
      </trkpt>
      <trkpt lat="43.50776" lon="5.31019">
        <ele>168.84875488281</ele>
        <time>2019-02-24T09:30:34Z</time>
      </trkpt>
      <trkpt lat="43.5078" lon="5.30995">
        <ele>167.40673828125</ele>
        <time>2019-02-24T09:30:48Z</time>
      </trkpt>
      <trkpt lat="43.5079" lon="5.30982">
        <ele>167.40673828125</ele>
        <time>2019-02-24T09:31:01Z</time>
      </trkpt>
      <trkpt lat="43.50784" lon="5.30981">
        <ele>166.92602539062</ele>
        <time>2019-02-24T09:31:30Z</time>
      </trkpt>
      <trkpt lat="43.50781" lon="5.30978">
        <ele>166.4453125</ele>
        <time>2019-02-24T09:31:39Z</time>
      </trkpt>
      <trkpt lat="43.50784" lon="5.30985">
        <ele>166.4453125</ele>
        <time>2019-02-24T09:31:59Z</time>
      </trkpt>
      <trkpt lat="43.50775" lon="5.30975">
        <ele>165.96472167969</ele>
        <time>2019-02-24T09:32:35Z</time>
      </trkpt>
      <trkpt lat="43.50785" lon="5.30967">
        <ele>165.96472167969</ele>
        <time>2019-02-24T09:32:48Z</time>
      </trkpt>
      <trkpt lat="43.50791" lon="5.30947">
        <ele>164.52270507812</ele>
        <time>2019-02-24T09:33:04Z</time>
      </trkpt>
      <trkpt lat="43.50794" lon="5.3094">
        <ele>164.52270507812</ele>
        <time>2019-02-24T09:33:08Z</time>
      </trkpt>
      <trkpt lat="43.50797" lon="5.30935">
        <ele>164.52270507812</ele>
        <time>2019-02-24T09:33:12Z</time>
      </trkpt>
      <trkpt lat="43.50798" lon="5.30933">
        <ele>164.04211425781</ele>
        <time>2019-02-24T09:33:14Z</time>
      </trkpt>
      <trkpt lat="43.50801" lon="5.30927">
        <ele>164.04211425781</ele>
        <time>2019-02-24T09:33:19Z</time>
      </trkpt>
      <trkpt lat="43.50803" lon="5.30924">
        <ele>163.5615234375</ele>
        <time>2019-02-24T09:33:21Z</time>
      </trkpt>
      <trkpt lat="43.50803" lon="5.30907">
        <ele>162.60009765625</ele>
        <time>2019-02-24T09:33:34Z</time>
      </trkpt>
      <trkpt lat="43.50802" lon="5.30893">
        <ele>161.158203125</ele>
        <time>2019-02-24T09:33:42Z</time>
      </trkpt>
      <trkpt lat="43.50807" lon="5.30888">
        <ele>160.67749023438</ele>
        <time>2019-02-24T09:33:47Z</time>
      </trkpt>
      <trkpt lat="43.50807" lon="5.30886">
        <ele>160.19689941406</ele>
        <time>2019-02-24T09:33:49Z</time>
      </trkpt>
      <trkpt lat="43.50806" lon="5.30868">
        <ele>159.71618652344</ele>
        <time>2019-02-24T09:33:57Z</time>
      </trkpt>
      <trkpt lat="43.50807" lon="5.30861">
        <ele>158.75476074219</ele>
        <time>2019-02-24T09:34:01Z</time>
      </trkpt>
      <trkpt lat="43.50811" lon="5.30848">
        <ele>157.79357910156</ele>
        <time>2019-02-24T09:34:09Z</time>
      </trkpt>
      <trkpt lat="43.50811" lon="5.30842">
        <ele>157.31286621094</ele>
        <time>2019-02-24T09:34:12Z</time>
      </trkpt>
      <trkpt lat="43.50812" lon="5.30837">
        <ele>156.83215332031</ele>
        <time>2019-02-24T09:34:15Z</time>
      </trkpt>
      <trkpt lat="43.50814" lon="5.30823">
        <ele>154.90954589844</ele>
        <time>2019-02-24T09:34:24Z</time>
      </trkpt>
      <trkpt lat="43.50811" lon="5.30813">
        <ele>154.42895507812</ele>
        <time>2019-02-24T09:34:30Z</time>
      </trkpt>
      <trkpt lat="43.50814" lon="5.308">
        <ele>151.544921875</ele>
        <time>2019-02-24T09:34:44Z</time>
      </trkpt>
      <trkpt lat="43.50827" lon="5.30778">
        <ele>150.10302734375</ele>
        <time>2019-02-24T09:35:01Z</time>
      </trkpt>
      <trkpt lat="43.5083" lon="5.30774">
        <ele>150.10302734375</ele>
        <time>2019-02-24T09:35:04Z</time>
      </trkpt>
      <trkpt lat="43.5083" lon="5.30769">
        <ele>149.62231445312</ele>
        <time>2019-02-24T09:35:07Z</time>
      </trkpt>
      <trkpt lat="43.50834" lon="5.30745">
        <ele>148.66101074219</ele>
        <time>2019-02-24T09:35:20Z</time>
      </trkpt>
      <trkpt lat="43.50835" lon="5.30733">
        <ele>148.18041992188</ele>
        <time>2019-02-24T09:35:30Z</time>
      </trkpt>
      <trkpt lat="43.50837" lon="5.3072">
        <ele>148.18041992188</ele>
        <time>2019-02-24T09:35:37Z</time>
      </trkpt>
      <trkpt lat="43.50846" lon="5.30699">
        <ele>147.21899414062</ele>
        <time>2019-02-24T09:35:50Z</time>
      </trkpt>
      <trkpt lat="43.50848" lon="5.30689">
        <ele>147.69970703125</ele>
        <time>2019-02-24T09:35:56Z</time>
      </trkpt>
      <trkpt lat="43.50851" lon="5.30682">
        <ele>147.69970703125</ele>
        <time>2019-02-24T09:36:01Z</time>
      </trkpt>
      <trkpt lat="43.50851" lon="5.30676">
        <ele>148.18041992188</ele>
        <time>2019-02-24T09:36:05Z</time>
      </trkpt>
      <trkpt lat="43.50852" lon="5.3067">
        <ele>148.66101074219</ele>
        <time>2019-02-24T09:36:09Z</time>
      </trkpt>
      <trkpt lat="43.50852" lon="5.30659">
        <ele>149.1416015625</ele>
        <time>2019-02-24T09:36:16Z</time>
      </trkpt>
      <trkpt lat="43.50852" lon="5.30654">
        <ele>149.62231445312</ele>
        <time>2019-02-24T09:36:19Z</time>
      </trkpt>
      <trkpt lat="43.50857" lon="5.30629">
        <ele>151.06420898438</ele>
        <time>2019-02-24T09:36:34Z</time>
      </trkpt>
      <trkpt lat="43.50857" lon="5.30616">
        <ele>151.544921875</ele>
        <time>2019-02-24T09:36:44Z</time>
      </trkpt>
      <trkpt lat="43.50854" lon="5.30599">
        <ele>152.02575683594</ele>
        <time>2019-02-24T09:36:53Z</time>
      </trkpt>
      <trkpt lat="43.50846" lon="5.30584">
        <ele>152.50634765625</ele>
        <time>2019-02-24T09:37:03Z</time>
      </trkpt>
      <trkpt lat="43.50843" lon="5.30577">
        <ele>152.50634765625</ele>
        <time>2019-02-24T09:37:07Z</time>
      </trkpt>
      <trkpt lat="43.50841" lon="5.30572">
        <ele>152.50634765625</ele>
        <time>2019-02-24T09:37:09Z</time>
      </trkpt>
      <trkpt lat="43.50837" lon="5.30555">
        <ele>154.42895507812</ele>
        <time>2019-02-24T09:37:24Z</time>
      </trkpt>
      <trkpt lat="43.50835" lon="5.30549">
        <ele>154.42895507812</ele>
        <time>2019-02-24T09:37:26Z</time>
      </trkpt>
      <trkpt lat="43.5083" lon="5.30531">
        <ele>155.87097167969</ele>
        <time>2019-02-24T09:37:39Z</time>
      </trkpt>
      <trkpt lat="43.50833" lon="5.30525">
        <ele>155.87097167969</ele>
        <time>2019-02-24T09:37:49Z</time>
      </trkpt>
      <trkpt lat="43.50834" lon="5.3052">
        <ele>155.87097167969</ele>
        <time>2019-02-24T09:37:52Z</time>
      </trkpt>
      <trkpt lat="43.50836" lon="5.30506">
        <ele>156.83215332031</ele>
        <time>2019-02-24T09:38:05Z</time>
      </trkpt>
      <trkpt lat="43.50846" lon="5.30501">
        <ele>155.87097167969</ele>
        <time>2019-02-24T09:38:19Z</time>
      </trkpt>
      <trkpt lat="43.50847" lon="5.3049">
        <ele>156.3515625</ele>
        <time>2019-02-24T09:39:01Z</time>
      </trkpt>
      <trkpt lat="43.50847" lon="5.30482">
        <ele>157.79357910156</ele>
        <time>2019-02-24T09:39:15Z</time>
      </trkpt>
      <trkpt lat="43.50844" lon="5.30476">
        <ele>158.27416992188</ele>
        <time>2019-02-24T09:39:18Z</time>
      </trkpt>
      <trkpt lat="43.5084" lon="5.30464">
        <ele>159.23547363281</ele>
        <time>2019-02-24T09:39:28Z</time>
      </trkpt>
      <trkpt lat="43.50842" lon="5.30451">
        <ele>159.71618652344</ele>
        <time>2019-02-24T09:39:38Z</time>
      </trkpt>
      <trkpt lat="43.50843" lon="5.30449">
        <ele>159.71618652344</ele>
        <time>2019-02-24T09:39:40Z</time>
      </trkpt>
      <trkpt lat="43.50844" lon="5.30429">
        <ele>161.63891601562</ele>
        <time>2019-02-24T09:39:56Z</time>
      </trkpt>
      <trkpt lat="43.5085" lon="5.30404">
        <ele>163.5615234375</ele>
        <time>2019-02-24T09:40:14Z</time>
      </trkpt>
      <trkpt lat="43.50854" lon="5.30387">
        <ele>165.96472167969</ele>
        <time>2019-02-24T09:40:31Z</time>
      </trkpt>
      <trkpt lat="43.50856" lon="5.30362">
        <ele>166.92602539062</ele>
        <time>2019-02-24T09:40:45Z</time>
      </trkpt>
      <trkpt lat="43.50855" lon="5.30356">
        <ele>167.88732910156</ele>
        <time>2019-02-24T09:40:48Z</time>
      </trkpt>
      <trkpt lat="43.50855" lon="5.30339">
        <ele>169.32946777344</ele>
        <time>2019-02-24T09:41:03Z</time>
      </trkpt>
      <trkpt lat="43.50857" lon="5.30318">
        <ele>171.25207519531</ele>
        <time>2019-02-24T09:41:19Z</time>
      </trkpt>
      <trkpt lat="43.50863" lon="5.303">
        <ele>173.17468261719</ele>
        <time>2019-02-24T09:41:33Z</time>
      </trkpt>
      <trkpt lat="43.50867" lon="5.30285">
        <ele>174.61657714844</ele>
        <time>2019-02-24T09:41:47Z</time>
      </trkpt>
      <trkpt lat="43.50871" lon="5.30272">
        <ele>176.05859375</ele>
        <time>2019-02-24T09:42:00Z</time>
      </trkpt>
      <trkpt lat="43.50874" lon="5.30266">
        <ele>176.53930664062</ele>
        <time>2019-02-24T09:42:05Z</time>
      </trkpt>
      <trkpt lat="43.50884" lon="5.30254">
        <ele>178.4619140625</ele>
        <time>2019-02-24T09:42:18Z</time>
      </trkpt>
      <trkpt lat="43.50886" lon="5.3025">
        <ele>178.94262695312</ele>
        <time>2019-02-24T09:42:23Z</time>
      </trkpt>
      <trkpt lat="43.50893" lon="5.30232">
        <ele>180.865234375</ele>
        <time>2019-02-24T09:42:39Z</time>
      </trkpt>
      <trkpt lat="43.50896" lon="5.30228">
        <ele>181.34582519531</ele>
        <time>2019-02-24T09:42:43Z</time>
      </trkpt>
      <trkpt lat="43.50896" lon="5.30225">
        <ele>181.34582519531</ele>
        <time>2019-02-24T09:42:45Z</time>
      </trkpt>
      <trkpt lat="43.50896" lon="5.30216">
        <ele>182.78784179688</ele>
        <time>2019-02-24T09:42:51Z</time>
      </trkpt>
      <trkpt lat="43.50898" lon="5.30212">
        <ele>182.78784179688</ele>
        <time>2019-02-24T09:42:55Z</time>
      </trkpt>
      <trkpt lat="43.50905" lon="5.30198">
        <ele>184.22985839844</ele>
        <time>2019-02-24T09:43:10Z</time>
      </trkpt>
      <trkpt lat="43.5091" lon="5.30185">
        <ele>185.67175292969</ele>
        <time>2019-02-24T09:43:22Z</time>
      </trkpt>
      <trkpt lat="43.50916" lon="5.3018">
        <ele>186.63317871094</ele>
        <time>2019-02-24T09:43:26Z</time>
      </trkpt>
      <trkpt lat="43.50923" lon="5.30166">
        <ele>187.59436035156</ele>
        <time>2019-02-24T09:43:40Z</time>
      </trkpt>
      <trkpt lat="43.50923" lon="5.30165">
        <ele>187.59436035156</ele>
        <time>2019-02-24T09:43:41Z</time>
      </trkpt>
      <trkpt lat="43.50932" lon="5.30149">
        <ele>189.51696777344</ele>
        <time>2019-02-24T09:43:57Z</time>
      </trkpt>
      <trkpt lat="43.50935" lon="5.30143">
        <ele>189.51696777344</ele>
        <time>2019-02-24T09:44:02Z</time>
      </trkpt>
      <trkpt lat="43.50938" lon="5.30139">
        <ele>189.99768066406</ele>
        <time>2019-02-24T09:44:06Z</time>
      </trkpt>
      <trkpt lat="43.50942" lon="5.30131">
        <ele>190.47839355469</ele>
        <time>2019-02-24T09:44:14Z</time>
      </trkpt>
      <trkpt lat="43.50951" lon="5.30117">
        <ele>190.958984375</ele>
        <time>2019-02-24T09:44:27Z</time>
      </trkpt>
      <trkpt lat="43.50952" lon="5.30116">
        <ele>190.958984375</ele>
        <time>2019-02-24T09:44:28Z</time>
      </trkpt>
      <trkpt lat="43.50956" lon="5.30112">
        <ele>191.43957519531</ele>
        <time>2019-02-24T09:44:33Z</time>
      </trkpt>
      <trkpt lat="43.50962" lon="5.30111">
        <ele>191.43957519531</ele>
        <time>2019-02-24T09:44:50Z</time>
      </trkpt>
      <trkpt lat="43.50964" lon="5.30121">
        <ele>192.88171386719</ele>
        <time>2019-02-24T09:45:03Z</time>
      </trkpt>
      <trkpt lat="43.50965" lon="5.30115">
        <ele>191.92028808594</ele>
        <time>2019-02-24T09:45:09Z</time>
      </trkpt>
      <trkpt lat="43.50964" lon="5.30112">
        <ele>191.92028808594</ele>
        <time>2019-02-24T09:45:11Z</time>
      </trkpt>
      <trkpt lat="43.50948" lon="5.30113">
        <ele>190.958984375</ele>
        <time>2019-02-24T09:45:25Z</time>
      </trkpt>
      <trkpt lat="43.50943" lon="5.30112">
        <ele>190.958984375</ele>
        <time>2019-02-24T09:45:41Z</time>
      </trkpt>
      <trkpt lat="43.50946" lon="5.30112">
        <ele>190.47839355469</ele>
        <time>2019-02-24T09:45:45Z</time>
      </trkpt>
      <trkpt lat="43.50957" lon="5.3011">
        <ele>190.958984375</ele>
        <time>2019-02-24T09:46:00Z</time>
      </trkpt>
      <trkpt lat="43.50957" lon="5.30109">
        <ele>190.47839355469</ele>
        <time>2019-02-24T09:46:36Z</time>
      </trkpt>
      <trkpt lat="43.50958" lon="5.30116">
        <ele>190.958984375</ele>
        <time>2019-02-24T09:46:57Z</time>
      </trkpt>
      <trkpt lat="43.50963" lon="5.30109">
        <ele>191.43957519531</ele>
        <time>2019-02-24T09:47:08Z</time>
      </trkpt>
      <trkpt lat="43.50978" lon="5.30082">
        <ele>189.51696777344</ele>
        <time>2019-02-24T09:47:31Z</time>
      </trkpt>
      <trkpt lat="43.50988" lon="5.30065">
        <ele>188.55578613281</ele>
        <time>2019-02-24T09:47:46Z</time>
      </trkpt>
      <trkpt lat="43.50989" lon="5.30057">
        <ele>187.11376953125</ele>
        <time>2019-02-24T09:47:50Z</time>
      </trkpt>
      <trkpt lat="43.50991" lon="5.30052">
        <ele>186.63317871094</ele>
        <time>2019-02-24T09:47:54Z</time>
      </trkpt>
      <trkpt lat="43.51" lon="5.30032">
        <ele>183.26843261719</ele>
        <time>2019-02-24T09:48:09Z</time>
      </trkpt>
      <trkpt lat="43.51013" lon="5.30004">
        <ele>180.865234375</ele>
        <time>2019-02-24T09:48:29Z</time>
      </trkpt>
      <trkpt lat="43.51028" lon="5.29973">
        <ele>179.90380859375</ele>
        <time>2019-02-24T09:48:52Z</time>
      </trkpt>
      <trkpt lat="43.51036" lon="5.29963">
        <ele>178.94262695312</ele>
        <time>2019-02-24T09:49:02Z</time>
      </trkpt>
      <trkpt lat="43.51041" lon="5.29956">
        <ele>177.98120117188</ele>
        <time>2019-02-24T09:49:15Z</time>
      </trkpt>
      <trkpt lat="43.51062" lon="5.29942">
        <ele>177.02001953125</ele>
        <time>2019-02-24T09:49:33Z</time>
      </trkpt>
      <trkpt lat="43.51084" lon="5.29934">
        <ele>175.09729003906</ele>
        <time>2019-02-24T09:49:47Z</time>
      </trkpt>
      <trkpt lat="43.511" lon="5.29925">
        <ele>173.6552734375</ele>
        <time>2019-02-24T09:50:04Z</time>
      </trkpt>
      <trkpt lat="43.51123" lon="5.29913">
        <ele>171.25207519531</ele>
        <time>2019-02-24T09:50:24Z</time>
      </trkpt>
      <trkpt lat="43.51141" lon="5.29904">
        <ele>170.77136230469</ele>
        <time>2019-02-24T09:50:38Z</time>
      </trkpt>
      <trkpt lat="43.51161" lon="5.2989">
        <ele>169.32946777344</ele>
        <time>2019-02-24T09:50:56Z</time>
      </trkpt>
      <trkpt lat="43.51176" lon="5.29876">
        <ele>165.96472167969</ele>
        <time>2019-02-24T09:51:12Z</time>
      </trkpt>
      <trkpt lat="43.51191" lon="5.29854">
        <ele>163.08081054688</ele>
        <time>2019-02-24T09:51:30Z</time>
      </trkpt>
      <trkpt lat="43.51196" lon="5.29839">
        <ele>161.158203125</ele>
        <time>2019-02-24T09:51:41Z</time>
      </trkpt>
      <trkpt lat="43.51198" lon="5.29828">
        <ele>159.71618652344</ele>
        <time>2019-02-24T09:51:57Z</time>
      </trkpt>
      <trkpt lat="43.51206" lon="5.29806">
        <ele>159.23547363281</ele>
        <time>2019-02-24T09:52:20Z</time>
      </trkpt>
      <trkpt lat="43.51208" lon="5.29801">
        <ele>159.23547363281</ele>
        <time>2019-02-24T09:52:24Z</time>
      </trkpt>
      <trkpt lat="43.5121" lon="5.29795">
        <ele>158.27416992188</ele>
        <time>2019-02-24T09:52:28Z</time>
      </trkpt>
      <trkpt lat="43.51209" lon="5.29791">
        <ele>158.27416992188</ele>
        <time>2019-02-24T09:52:32Z</time>
      </trkpt>
      <trkpt lat="43.5121" lon="5.29787">
        <ele>157.79357910156</ele>
        <time>2019-02-24T09:52:35Z</time>
      </trkpt>
      <trkpt lat="43.51213" lon="5.29781">
        <ele>157.79357910156</ele>
        <time>2019-02-24T09:52:39Z</time>
      </trkpt>
      <trkpt lat="43.51224" lon="5.29748">
        <ele>156.3515625</ele>
        <time>2019-02-24T09:52:59Z</time>
      </trkpt>
      <trkpt lat="43.51225" lon="5.29746">
        <ele>156.3515625</ele>
        <time>2019-02-24T09:53:01Z</time>
      </trkpt>
      <trkpt lat="43.51237" lon="5.29731">
        <ele>156.83215332031</ele>
        <time>2019-02-24T09:53:14Z</time>
      </trkpt>
      <trkpt lat="43.51253" lon="5.29725">
        <ele>156.3515625</ele>
        <time>2019-02-24T09:53:26Z</time>
      </trkpt>
      <trkpt lat="43.51274" lon="5.29721">
        <ele>157.31286621094</ele>
        <time>2019-02-24T09:53:41Z</time>
      </trkpt>
      <trkpt lat="43.51293" lon="5.2971">
        <ele>157.79357910156</ele>
        <time>2019-02-24T09:53:55Z</time>
      </trkpt>
      <trkpt lat="43.51307" lon="5.29689">
        <ele>158.27416992188</ele>
        <time>2019-02-24T09:54:15Z</time>
      </trkpt>
      <trkpt lat="43.51312" lon="5.29682">
        <ele>158.27416992188</ele>
        <time>2019-02-24T09:54:22Z</time>
      </trkpt>
      <trkpt lat="43.51333" lon="5.29661">
        <ele>157.79357910156</ele>
        <time>2019-02-24T09:54:44Z</time>
      </trkpt>
      <trkpt lat="43.51353" lon="5.2964">
        <ele>156.83215332031</ele>
        <time>2019-02-24T09:55:04Z</time>
      </trkpt>
      <trkpt lat="43.51376" lon="5.29617">
        <ele>155.39025878906</ele>
        <time>2019-02-24T09:55:26Z</time>
      </trkpt>
      <trkpt lat="43.514" lon="5.29593">
        <ele>153.94836425781</ele>
        <time>2019-02-24T09:55:50Z</time>
      </trkpt>
      <trkpt lat="43.51408" lon="5.29582">
        <ele>153.94836425781</ele>
        <time>2019-02-24T09:56:01Z</time>
      </trkpt>
      <trkpt lat="43.51411" lon="5.29579">
        <ele>153.46765136719</ele>
        <time>2019-02-24T09:56:04Z</time>
      </trkpt>
      <trkpt lat="43.51426" lon="5.29553">
        <ele>152.02575683594</ele>
        <time>2019-02-24T09:56:24Z</time>
      </trkpt>
      <trkpt lat="43.51445" lon="5.29526">
        <ele>150.58361816406</ele>
        <time>2019-02-24T09:56:45Z</time>
      </trkpt>
      <trkpt lat="43.51458" lon="5.2951">
        <ele>149.1416015625</ele>
        <time>2019-02-24T09:57:02Z</time>
      </trkpt>
      <trkpt lat="43.51484" lon="5.29481">
        <ele>148.66101074219</ele>
        <time>2019-02-24T09:57:29Z</time>
      </trkpt>
      <trkpt lat="43.51493" lon="5.29469">
        <ele>148.66101074219</ele>
        <time>2019-02-24T09:57:44Z</time>
      </trkpt>
      <trkpt lat="43.51515" lon="5.29448">
        <ele>148.66101074219</ele>
        <time>2019-02-24T09:58:06Z</time>
      </trkpt>
      <trkpt lat="43.51527" lon="5.29435">
        <ele>149.1416015625</ele>
        <time>2019-02-24T09:58:22Z</time>
      </trkpt>
      <trkpt lat="43.51532" lon="5.29429">
        <ele>149.62231445312</ele>
        <time>2019-02-24T09:58:28Z</time>
      </trkpt>
      <trkpt lat="43.51545" lon="5.29411">
        <ele>150.10302734375</ele>
        <time>2019-02-24T09:58:51Z</time>
      </trkpt>
      <trkpt lat="43.51557" lon="5.29394">
        <ele>149.62231445312</ele>
        <time>2019-02-24T09:59:06Z</time>
      </trkpt>
      <trkpt lat="43.51569" lon="5.29384">
        <ele>150.58361816406</ele>
        <time>2019-02-24T09:59:18Z</time>
      </trkpt>
      <trkpt lat="43.51581" lon="5.29371">
        <ele>151.06420898438</ele>
        <time>2019-02-24T09:59:36Z</time>
      </trkpt>
      <trkpt lat="43.51598" lon="5.29362">
        <ele>152.50634765625</ele>
        <time>2019-02-24T09:59:57Z</time>
      </trkpt>
      <trkpt lat="43.5161" lon="5.29361">
        <ele>152.50634765625</ele>
        <time>2019-02-24T10:00:35Z</time>
      </trkpt>
      <trkpt lat="43.5162" lon="5.29357">
        <ele>153.46765136719</ele>
        <time>2019-02-24T10:00:49Z</time>
      </trkpt>
      <trkpt lat="43.51625" lon="5.29357">
        <ele>154.42895507812</ele>
        <time>2019-02-24T10:00:55Z</time>
      </trkpt>
      <trkpt lat="43.51642" lon="5.29353">
        <ele>154.90954589844</ele>
        <time>2019-02-24T10:01:09Z</time>
      </trkpt>
      <trkpt lat="43.51646" lon="5.29348">
        <ele>154.90954589844</ele>
        <time>2019-02-24T10:01:39Z</time>
      </trkpt>
      <trkpt lat="43.51653" lon="5.29341">
        <ele>154.90954589844</ele>
        <time>2019-02-24T10:01:55Z</time>
      </trkpt>
      <trkpt lat="43.51664" lon="5.29323">
        <ele>154.42895507812</ele>
        <time>2019-02-24T10:02:10Z</time>
      </trkpt>
      <trkpt lat="43.51666" lon="5.29317">
        <ele>155.39025878906</ele>
        <time>2019-02-24T10:02:15Z</time>
      </trkpt>
      <trkpt lat="43.5168" lon="5.29306">
        <ele>153.94836425781</ele>
        <time>2019-02-24T10:02:31Z</time>
      </trkpt>
      <trkpt lat="43.51699" lon="5.29298">
        <ele>153.46765136719</ele>
        <time>2019-02-24T10:02:49Z</time>
      </trkpt>
      <trkpt lat="43.51721" lon="5.29291">
        <ele>152.02575683594</ele>
        <time>2019-02-24T10:03:08Z</time>
      </trkpt>
      <trkpt lat="43.51747" lon="5.29273">
        <ele>149.1416015625</ele>
        <time>2019-02-24T10:03:32Z</time>
      </trkpt>
      <trkpt lat="43.51768" lon="5.29265">
        <ele>146.73840332031</ele>
        <time>2019-02-24T10:03:50Z</time>
      </trkpt>
      <trkpt lat="43.5179" lon="5.29255">
        <ele>143.85437011719</ele>
        <time>2019-02-24T10:04:09Z</time>
      </trkpt>
      <trkpt lat="43.5181" lon="5.29243">
        <ele>140.97045898438</ele>
        <time>2019-02-24T10:04:28Z</time>
      </trkpt>
      <trkpt lat="43.51827" lon="5.2924">
        <ele>138.08654785156</ele>
        <time>2019-02-24T10:04:47Z</time>
      </trkpt>
      <trkpt lat="43.51841" lon="5.29242">
        <ele>135.20251464844</ele>
        <time>2019-02-24T10:05:03Z</time>
      </trkpt>
      <trkpt lat="43.51862" lon="5.29234">
        <ele>132.79931640625</ele>
        <time>2019-02-24T10:05:22Z</time>
      </trkpt>
      <trkpt lat="43.51876" lon="5.29222">
        <ele>129.43469238281</ele>
        <time>2019-02-24T10:05:37Z</time>
      </trkpt>
      <trkpt lat="43.51881" lon="5.29219">
        <ele>127.99255371094</ele>
        <time>2019-02-24T10:05:44Z</time>
      </trkpt>
      <trkpt lat="43.51883" lon="5.29218">
        <ele>127.51196289062</ele>
        <time>2019-02-24T10:05:46Z</time>
      </trkpt>
      <trkpt lat="43.51898" lon="5.29204">
        <ele>124.14733886719</ele>
        <time>2019-02-24T10:06:03Z</time>
      </trkpt>
      <trkpt lat="43.51899" lon="5.29196">
        <ele>122.70544433594</ele>
        <time>2019-02-24T10:06:10Z</time>
      </trkpt>
      <trkpt lat="43.51901" lon="5.29181">
        <ele>121.26354980469</ele>
        <time>2019-02-24T10:06:20Z</time>
      </trkpt>
      <trkpt lat="43.51906" lon="5.29153">
        <ele>117.41821289062</ele>
        <time>2019-02-24T10:06:40Z</time>
      </trkpt>
      <trkpt lat="43.51912" lon="5.29132">
        <ele>115.97619628906</ele>
        <time>2019-02-24T10:06:54Z</time>
      </trkpt>
      <trkpt lat="43.51915" lon="5.29126">
        <ele>115.49560546875</ele>
        <time>2019-02-24T10:07:09Z</time>
      </trkpt>
      <trkpt lat="43.51918" lon="5.29124">
        <ele>115.01489257812</ele>
        <time>2019-02-24T10:07:33Z</time>
      </trkpt>
      <trkpt lat="43.51927" lon="5.29123">
        <ele>112.13098144531</ele>
        <time>2019-02-24T10:07:48Z</time>
      </trkpt>
      <trkpt lat="43.5193" lon="5.29124">
        <ele>111.65026855469</ele>
        <time>2019-02-24T10:07:52Z</time>
      </trkpt>
      <trkpt lat="43.5194" lon="5.29121">
        <ele>110.68884277344</ele>
        <time>2019-02-24T10:08:00Z</time>
      </trkpt>
      <trkpt lat="43.51941" lon="5.29118">
        <ele>110.20825195312</ele>
        <time>2019-02-24T10:08:04Z</time>
      </trkpt>
      <trkpt lat="43.51945" lon="5.29116">
        <ele>109.72766113281</ele>
        <time>2019-02-24T10:08:07Z</time>
      </trkpt>
      <trkpt lat="43.51957" lon="5.291">
        <ele>107.80505371094</ele>
        <time>2019-02-24T10:08:20Z</time>
      </trkpt>
      <trkpt lat="43.51962" lon="5.29093">
        <ele>106.36303710938</ele>
        <time>2019-02-24T10:08:26Z</time>
      </trkpt>
      <trkpt lat="43.51963" lon="5.2909">
        <ele>106.36303710938</ele>
        <time>2019-02-24T10:08:28Z</time>
      </trkpt>
      <trkpt lat="43.51968" lon="5.29082">
        <ele>105.40173339844</ele>
        <time>2019-02-24T10:08:34Z</time>
      </trkpt>
      <trkpt lat="43.5198" lon="5.2907">
        <ele>104.4404296875</ele>
        <time>2019-02-24T10:08:45Z</time>
      </trkpt>
      <trkpt lat="43.51988" lon="5.29068">
        <ele>103.47900390625</ele>
        <time>2019-02-24T10:08:52Z</time>
      </trkpt>
      <trkpt lat="43.52015" lon="5.29068">
        <ele>101.55639648438</ele>
        <time>2019-02-24T10:09:07Z</time>
      </trkpt>
      <trkpt lat="43.5204" lon="5.29056">
        <ele>98.19189453125</ele>
        <time>2019-02-24T10:09:26Z</time>
      </trkpt>
      <trkpt lat="43.52056" lon="5.29046">
        <ele>95.307739257812</ele>
        <time>2019-02-24T10:09:43Z</time>
      </trkpt>
      <trkpt lat="43.52075" lon="5.29039">
        <ele>93.385131835938</ele>
        <time>2019-02-24T10:10:00Z</time>
      </trkpt>
      <trkpt lat="43.52094" lon="5.29026">
        <ele>90.501342773438</ele>
        <time>2019-02-24T10:10:17Z</time>
      </trkpt>
      <trkpt lat="43.52109" lon="5.29019">
        <ele>87.6171875</ele>
        <time>2019-02-24T10:10:31Z</time>
      </trkpt>
      <trkpt lat="43.5212" lon="5.29015">
        <ele>85.694580078125</ele>
        <time>2019-02-24T10:10:43Z</time>
      </trkpt>
      <trkpt lat="43.5214" lon="5.29006">
        <ele>83.77197265625</ele>
        <time>2019-02-24T10:10:59Z</time>
      </trkpt>
      <trkpt lat="43.52149" lon="5.28998">
        <ele>83.291381835938</ele>
        <time>2019-02-24T10:11:09Z</time>
      </trkpt>
      <trkpt lat="43.52152" lon="5.28992">
        <ele>82.810791015625</ele>
        <time>2019-02-24T10:11:14Z</time>
      </trkpt>
      <trkpt lat="43.52158" lon="5.28976">
        <ele>81.368774414062</ele>
        <time>2019-02-24T10:11:26Z</time>
      </trkpt>
      <trkpt lat="43.52163" lon="5.28966">
        <ele>80.407470703125</ele>
        <time>2019-02-24T10:11:33Z</time>
      </trkpt>
      <trkpt lat="43.52162" lon="5.28929">
        <ele>78.965454101562</ele>
        <time>2019-02-24T10:11:55Z</time>
      </trkpt>
      <trkpt lat="43.52158" lon="5.28901">
        <ele>80.407470703125</ele>
        <time>2019-02-24T10:12:12Z</time>
      </trkpt>
      <trkpt lat="43.52154" lon="5.2888">
        <ele>81.368774414062</ele>
        <time>2019-02-24T10:12:27Z</time>
      </trkpt>
      <trkpt lat="43.52158" lon="5.28873">
        <ele>81.849365234375</ele>
        <time>2019-02-24T10:12:33Z</time>
      </trkpt>
      <trkpt lat="43.52141" lon="5.28879">
        <ele>87.6171875</ele>
        <time>2019-02-24T11:33:54Z</time>
      </trkpt>
      <trkpt lat="43.52154" lon="5.28892">
        <ele>86.17529296875</ele>
        <time>2019-02-24T11:34:09Z</time>
      </trkpt>
      <trkpt lat="43.52172" lon="5.28919">
        <ele>85.694580078125</ele>
        <time>2019-02-24T11:34:29Z</time>
      </trkpt>
      <trkpt lat="43.52189" lon="5.28947">
        <ele>85.213989257812</ele>
        <time>2019-02-24T11:34:51Z</time>
      </trkpt>
      <trkpt lat="43.52209" lon="5.28968">
        <ele>84.7333984375</ele>
        <time>2019-02-24T11:35:10Z</time>
      </trkpt>
      <trkpt lat="43.52231" lon="5.2899">
        <ele>83.77197265625</ele>
        <time>2019-02-24T11:35:32Z</time>
      </trkpt>
      <trkpt lat="43.52246" lon="5.29011">
        <ele>83.291381835938</ele>
        <time>2019-02-24T11:35:50Z</time>
      </trkpt>
      <trkpt lat="43.52258" lon="5.29037">
        <ele>81.368774414062</ele>
        <time>2019-02-24T11:36:09Z</time>
      </trkpt>
      <trkpt lat="43.52262" lon="5.29068">
        <ele>80.407470703125</ele>
        <time>2019-02-24T11:36:27Z</time>
      </trkpt>
      <trkpt lat="43.52273" lon="5.29095">
        <ele>79.446044921875</ele>
        <time>2019-02-24T11:36:43Z</time>
      </trkpt>
      <trkpt lat="43.52292" lon="5.29105">
        <ele>78.004028320312</ele>
        <time>2019-02-24T11:36:59Z</time>
      </trkpt>
      <trkpt lat="43.52306" lon="5.29116">
        <ele>77.5234375</ele>
        <time>2019-02-24T11:37:14Z</time>
      </trkpt>
      <trkpt lat="43.5231" lon="5.29123">
        <ele>77.042846679688</ele>
        <time>2019-02-24T11:37:19Z</time>
      </trkpt>
      <trkpt lat="43.52318" lon="5.29147">
        <ele>78.004028320312</ele>
        <time>2019-02-24T11:37:34Z</time>
      </trkpt>
      <trkpt lat="43.52324" lon="5.29158">
        <ele>78.965454101562</ele>
        <time>2019-02-24T11:37:47Z</time>
      </trkpt>
      <trkpt lat="43.52341" lon="5.29184">
        <ele>78.484741210938</ele>
        <time>2019-02-24T11:38:07Z</time>
      </trkpt>
      <trkpt lat="43.52353" lon="5.29197">
        <ele>78.484741210938</ele>
        <time>2019-02-24T11:38:19Z</time>
      </trkpt>
      <trkpt lat="43.52365" lon="5.29206">
        <ele>78.004028320312</ele>
        <time>2019-02-24T11:38:31Z</time>
      </trkpt>
      <trkpt lat="43.52381" lon="5.29211">
        <ele>77.042846679688</ele>
        <time>2019-02-24T11:38:48Z</time>
      </trkpt>
      <trkpt lat="43.52398" lon="5.29222">
        <ele>76.081420898438</ele>
        <time>2019-02-24T11:39:01Z</time>
      </trkpt>
      <trkpt lat="43.52412" lon="5.29227">
        <ele>75.600830078125</ele>
        <time>2019-02-24T11:39:14Z</time>
      </trkpt>
      <trkpt lat="43.52425" lon="5.29226">
        <ele>75.120239257812</ele>
        <time>2019-02-24T11:39:27Z</time>
      </trkpt>
      <trkpt lat="43.52433" lon="5.29227">
        <ele>75.120239257812</ele>
        <time>2019-02-24T11:39:32Z</time>
      </trkpt>
      <trkpt lat="43.52443" lon="5.29226">
        <ele>75.120239257812</ele>
        <time>2019-02-24T11:39:37Z</time>
      </trkpt>
      <trkpt lat="43.52483" lon="5.29197">
        <ele>75.120239257812</ele>
        <time>2019-02-24T11:40:04Z</time>
      </trkpt>
      <trkpt lat="43.52495" lon="5.29179">
        <ele>75.600830078125</ele>
        <time>2019-02-24T11:40:19Z</time>
      </trkpt>
      <trkpt lat="43.52496" lon="5.29177">
        <ele>75.120239257812</ele>
        <time>2019-02-24T11:40:20Z</time>
      </trkpt>
      <trkpt lat="43.52502" lon="5.29174">
        <ele>75.600830078125</ele>
        <time>2019-02-24T11:40:25Z</time>
      </trkpt>
      <trkpt lat="43.52512" lon="5.29166">
        <ele>75.600830078125</ele>
        <time>2019-02-24T11:40:34Z</time>
      </trkpt>
      <trkpt lat="43.5253" lon="5.29156">
        <ele>75.600830078125</ele>
        <time>2019-02-24T11:40:51Z</time>
      </trkpt>
      <trkpt lat="43.52537" lon="5.29168">
        <ele>76.081420898438</ele>
        <time>2019-02-24T11:41:03Z</time>
      </trkpt>
      <trkpt lat="43.52547" lon="5.29188">
        <ele>76.081420898438</ele>
        <time>2019-02-24T11:41:18Z</time>
      </trkpt>
      <trkpt lat="43.52548" lon="5.29189">
        <ele>76.081420898438</ele>
        <time>2019-02-24T11:41:19Z</time>
      </trkpt>
      <trkpt lat="43.52561" lon="5.29209">
        <ele>76.081420898438</ele>
        <time>2019-02-24T11:41:35Z</time>
      </trkpt>
      <trkpt lat="43.52571" lon="5.29221">
        <ele>76.562133789062</ele>
        <time>2019-02-24T11:41:49Z</time>
      </trkpt>
      <trkpt lat="43.52575" lon="5.29222">
        <ele>76.562133789062</ele>
        <time>2019-02-24T11:41:52Z</time>
      </trkpt>
      <trkpt lat="43.52588" lon="5.29221">
        <ele>77.5234375</ele>
        <time>2019-02-24T11:42:05Z</time>
      </trkpt>
      <trkpt lat="43.52602" lon="5.2921">
        <ele>78.004028320312</ele>
        <time>2019-02-24T11:42:20Z</time>
      </trkpt>
      <trkpt lat="43.52608" lon="5.29189">
        <ele>78.004028320312</ele>
        <time>2019-02-24T11:42:39Z</time>
      </trkpt>
      <trkpt lat="43.52628" lon="5.29177">
        <ele>78.484741210938</ele>
        <time>2019-02-24T11:42:52Z</time>
      </trkpt>
      <trkpt lat="43.52645" lon="5.29141">
        <ele>77.5234375</ele>
        <time>2019-02-24T11:43:11Z</time>
      </trkpt>
      <trkpt lat="43.52649" lon="5.29133">
        <ele>77.5234375</ele>
        <time>2019-02-24T11:43:17Z</time>
      </trkpt>
      <trkpt lat="43.52649" lon="5.29128">
        <ele>77.5234375</ele>
        <time>2019-02-24T11:43:20Z</time>
      </trkpt>
      <trkpt lat="43.52658" lon="5.29105">
        <ele>78.004028320312</ele>
        <time>2019-02-24T11:43:34Z</time>
      </trkpt>
      <trkpt lat="43.52665" lon="5.2908">
        <ele>77.5234375</ele>
        <time>2019-02-24T11:43:49Z</time>
      </trkpt>
      <trkpt lat="43.52666" lon="5.29078">
        <ele>78.004028320312</ele>
        <time>2019-02-24T11:43:50Z</time>
      </trkpt>
      <trkpt lat="43.52666" lon="5.29076">
        <ele>78.004028320312</ele>
        <time>2019-02-24T11:43:52Z</time>
      </trkpt>
      <trkpt lat="43.52671" lon="5.29061">
        <ele>77.5234375</ele>
        <time>2019-02-24T11:44:01Z</time>
      </trkpt>
      <trkpt lat="43.52672" lon="5.2904">
        <ele>78.484741210938</ele>
        <time>2019-02-24T11:44:12Z</time>
      </trkpt>
      <trkpt lat="43.52684" lon="5.29032">
        <ele>79.446044921875</ele>
        <time>2019-02-24T11:44:24Z</time>
      </trkpt>
      <trkpt lat="43.52685" lon="5.29029">
        <ele>79.446044921875</ele>
        <time>2019-02-24T11:44:27Z</time>
      </trkpt>
      <trkpt lat="43.52685" lon="5.29021">
        <ele>79.446044921875</ele>
        <time>2019-02-24T11:44:32Z</time>
      </trkpt>
      <trkpt lat="43.52688" lon="5.28997">
        <ele>80.407470703125</ele>
        <time>2019-02-24T11:44:49Z</time>
      </trkpt>
      <trkpt lat="43.52689" lon="5.28987">
        <ele>80.407470703125</ele>
        <time>2019-02-24T11:44:56Z</time>
      </trkpt>
      <trkpt lat="43.52692" lon="5.28968">
        <ele>78.004028320312</ele>
        <time>2019-02-24T11:45:06Z</time>
      </trkpt>
      <trkpt lat="43.52703" lon="5.2895">
        <ele>80.88818359375</ele>
        <time>2019-02-24T11:45:27Z</time>
      </trkpt>
      <trkpt lat="43.52705" lon="5.28949">
        <ele>80.88818359375</ele>
        <time>2019-02-24T11:45:29Z</time>
      </trkpt>
      <trkpt lat="43.52719" lon="5.28953">
        <ele>83.291381835938</ele>
        <time>2019-02-24T11:45:45Z</time>
      </trkpt>
      <trkpt lat="43.52733" lon="5.28957">
        <ele>84.7333984375</ele>
        <time>2019-02-24T11:45:59Z</time>
      </trkpt>
      <trkpt lat="43.52742" lon="5.28953">
        <ele>87.6171875</ele>
        <time>2019-02-24T11:46:12Z</time>
      </trkpt>
      <trkpt lat="43.52757" lon="5.28955">
        <ele>89.059326171875</ele>
        <time>2019-02-24T11:46:28Z</time>
      </trkpt>
      <trkpt lat="43.52766" lon="5.28959">
        <ele>90.98193359375</ele>
        <time>2019-02-24T11:46:41Z</time>
      </trkpt>
      <trkpt lat="43.52781" lon="5.28974">
        <ele>93.865844726562</ele>
        <time>2019-02-24T11:47:01Z</time>
      </trkpt>
      <trkpt lat="43.52792" lon="5.28983">
        <ele>96.269287109375</ele>
        <time>2019-02-24T11:47:16Z</time>
      </trkpt>
      <trkpt lat="43.52809" lon="5.28995">
        <ele>98.672485351562</ele>
        <time>2019-02-24T11:47:33Z</time>
      </trkpt>
      <trkpt lat="43.52823" lon="5.29002">
        <ele>99.6337890625</ele>
        <time>2019-02-24T11:47:47Z</time>
      </trkpt>
      <trkpt lat="43.52823" lon="5.29002">
        <ele>99.6337890625</ele>
        <time>2019-02-24T11:47:48Z</time>
      </trkpt>
      <trkpt lat="43.52825" lon="5.29004">
        <ele>100.11450195312</ele>
        <time>2019-02-24T11:47:50Z</time>
      </trkpt>
      <trkpt lat="43.52839" lon="5.29021">
        <ele>102.037109375</ele>
        <time>2019-02-24T11:48:09Z</time>
      </trkpt>
      <trkpt lat="43.52841" lon="5.29026">
        <ele>102.51770019531</ele>
        <time>2019-02-24T11:48:13Z</time>
      </trkpt>
      <trkpt lat="43.5285" lon="5.2905">
        <ele>103.95971679688</ele>
        <time>2019-02-24T11:48:30Z</time>
      </trkpt>
      <trkpt lat="43.52862" lon="5.29087">
        <ele>105.88244628906</ele>
        <time>2019-02-24T11:48:55Z</time>
      </trkpt>
      <trkpt lat="43.52868" lon="5.29098">
        <ele>107.32434082031</ele>
        <time>2019-02-24T11:49:10Z</time>
      </trkpt>
      <trkpt lat="43.52872" lon="5.29106">
        <ele>107.80505371094</ele>
        <time>2019-02-24T11:49:18Z</time>
      </trkpt>
      <trkpt lat="43.52883" lon="5.29122">
        <ele>110.20825195312</ele>
        <time>2019-02-24T11:49:35Z</time>
      </trkpt>
      <trkpt lat="43.52886" lon="5.29124">
        <ele>110.20825195312</ele>
        <time>2019-02-24T11:49:39Z</time>
      </trkpt>
      <trkpt lat="43.52895" lon="5.29121">
        <ele>110.20825195312</ele>
        <time>2019-02-24T11:49:48Z</time>
      </trkpt>
      <trkpt lat="43.52915" lon="5.29118">
        <ele>111.16955566406</ele>
        <time>2019-02-24T11:50:01Z</time>
      </trkpt>
      <trkpt lat="43.52929" lon="5.29108">
        <ele>112.61157226562</ele>
        <time>2019-02-24T11:50:15Z</time>
      </trkpt>
      <trkpt lat="43.52931" lon="5.29107">
        <ele>112.61157226562</ele>
        <time>2019-02-24T11:50:16Z</time>
      </trkpt>
      <trkpt lat="43.52939" lon="5.29117">
        <ele>114.05358886719</ele>
        <time>2019-02-24T11:50:29Z</time>
      </trkpt>
      <trkpt lat="43.5294" lon="5.29125">
        <ele>115.01489257812</ele>
        <time>2019-02-24T11:50:41Z</time>
      </trkpt>
      <trkpt lat="43.52942" lon="5.29124">
        <ele>115.01489257812</ele>
        <time>2019-02-24T11:51:14Z</time>
      </trkpt>
      <trkpt lat="43.52944" lon="5.29125">
        <ele>115.01489257812</ele>
        <time>2019-02-24T11:51:36Z</time>
      </trkpt>
      <trkpt lat="43.52943" lon="5.29123">
        <ele>115.01489257812</ele>
        <time>2019-02-24T11:52:13Z</time>
      </trkpt>
      <trkpt lat="43.52942" lon="5.29124">
        <ele>114.05358886719</ele>
        <time>2019-02-24T11:52:54Z</time>
      </trkpt>
      <trkpt lat="43.5294" lon="5.29122">
        <ele>113.09228515625</ele>
        <time>2019-02-24T11:58:11Z</time>
      </trkpt>
      <trkpt lat="43.52939" lon="5.29123">
        <ele>112.61157226562</ele>
        <time>2019-02-24T12:04:02Z</time>
      </trkpt>
      <trkpt lat="43.5294" lon="5.29117">
        <ele>111.65026855469</ele>
        <time>2019-02-24T12:07:47Z</time>
      </trkpt>
      <trkpt lat="43.52938" lon="5.29104">
        <ele>111.65026855469</ele>
        <time>2019-02-24T12:08:54Z</time>
      </trkpt>
      <trkpt lat="43.52939" lon="5.29114">
        <ele>111.16955566406</ele>
        <time>2019-02-24T12:09:29Z</time>
      </trkpt>
      <trkpt lat="43.52933" lon="5.29108">
        <ele>110.68884277344</ele>
        <time>2019-02-24T12:24:24Z</time>
      </trkpt>
      <trkpt lat="43.52934" lon="5.29112">
        <ele>111.16955566406</ele>
        <time>2019-02-24T12:31:12Z</time>
      </trkpt>
      <trkpt lat="43.52926" lon="5.29103">
        <ele>112.13098144531</ele>
        <time>2019-02-24T12:40:16Z</time>
      </trkpt>
      <trkpt lat="43.52935" lon="5.29117">
        <ele>112.13098144531</ele>
        <time>2019-02-24T12:41:02Z</time>
      </trkpt>
      <trkpt lat="43.52925" lon="5.29105">
        <ele>112.13098144531</ele>
        <time>2019-02-24T12:41:38Z</time>
      </trkpt>
      <trkpt lat="43.5293" lon="5.29109">
        <ele>113.09228515625</ele>
        <time>2019-02-24T12:42:18Z</time>
      </trkpt>
      <trkpt lat="43.52931" lon="5.29102">
        <ele>113.09228515625</ele>
        <time>2019-02-24T12:43:06Z</time>
      </trkpt>
      <trkpt lat="43.52932" lon="5.29115">
        <ele>113.09228515625</ele>
        <time>2019-02-24T12:43:31Z</time>
      </trkpt>
      <trkpt lat="43.52937" lon="5.29121">
        <ele>114.05358886719</ele>
        <time>2019-02-24T12:46:06Z</time>
      </trkpt>
      <trkpt lat="43.52939" lon="5.29118">
        <ele>114.5341796875</ele>
        <time>2019-02-24T12:47:07Z</time>
      </trkpt>
      <trkpt lat="43.52938" lon="5.29117">
        <ele>115.01489257812</ele>
        <time>2019-02-24T12:48:08Z</time>
      </trkpt>
      <trkpt lat="43.52937" lon="5.29112">
        <ele>114.5341796875</ele>
        <time>2019-02-24T12:48:49Z</time>
      </trkpt>
      <trkpt lat="43.52938" lon="5.29104">
        <ele>114.05358886719</ele>
        <time>2019-02-24T12:49:12Z</time>
      </trkpt>
      <trkpt lat="43.52945" lon="5.29091">
        <ele>114.5341796875</ele>
        <time>2019-02-24T12:49:28Z</time>
      </trkpt>
      <trkpt lat="43.52957" lon="5.29076">
        <ele>115.97619628906</ele>
        <time>2019-02-24T12:49:47Z</time>
      </trkpt>
      <trkpt lat="43.52964" lon="5.29073">
        <ele>116.45678710938</ele>
        <time>2019-02-24T12:49:52Z</time>
      </trkpt>
      <trkpt lat="43.52971" lon="5.29073">
        <ele>116.9375</ele>
        <time>2019-02-24T12:50:03Z</time>
      </trkpt>
      <trkpt lat="43.5298" lon="5.29074">
        <ele>117.89880371094</ele>
        <time>2019-02-24T12:50:18Z</time>
      </trkpt>
      <trkpt lat="43.52989" lon="5.29075">
        <ele>118.86010742188</ele>
        <time>2019-02-24T12:50:30Z</time>
      </trkpt>
      <trkpt lat="43.52992" lon="5.29074">
        <ele>119.3408203125</ele>
        <time>2019-02-24T12:50:31Z</time>
      </trkpt>
      <trkpt lat="43.53003" lon="5.29072">
        <ele>119.3408203125</ele>
        <time>2019-02-24T12:50:45Z</time>
      </trkpt>
      <trkpt lat="43.53019" lon="5.29068">
        <ele>120.78283691406</ele>
        <time>2019-02-24T12:50:59Z</time>
      </trkpt>
      <trkpt lat="43.53031" lon="5.29063">
        <ele>121.26354980469</ele>
        <time>2019-02-24T12:51:14Z</time>
      </trkpt>
      <trkpt lat="43.5303" lon="5.29062">
        <ele>120.78283691406</ele>
        <time>2019-02-24T12:51:16Z</time>
      </trkpt>
      <trkpt lat="43.53042" lon="5.29058">
        <ele>121.744140625</ele>
        <time>2019-02-24T12:51:28Z</time>
      </trkpt>
      <trkpt lat="43.53052" lon="5.29055">
        <ele>122.22473144531</ele>
        <time>2019-02-24T12:51:37Z</time>
      </trkpt>
      <trkpt lat="43.53067" lon="5.29044">
        <ele>123.18615722656</ele>
        <time>2019-02-24T12:51:51Z</time>
      </trkpt>
      <trkpt lat="43.53082" lon="5.29042">
        <ele>123.66674804688</ele>
        <time>2019-02-24T12:52:07Z</time>
      </trkpt>
      <trkpt lat="43.53096" lon="5.29037">
        <ele>123.66674804688</ele>
        <time>2019-02-24T12:52:21Z</time>
      </trkpt>
      <trkpt lat="43.53102" lon="5.29036">
        <ele>123.18615722656</ele>
        <time>2019-02-24T12:52:26Z</time>
      </trkpt>
      <trkpt lat="43.53118" lon="5.29041">
        <ele>124.62805175781</ele>
        <time>2019-02-24T12:52:39Z</time>
      </trkpt>
      <trkpt lat="43.53128" lon="5.29039">
        <ele>124.14733886719</ele>
        <time>2019-02-24T12:52:49Z</time>
      </trkpt>
      <trkpt lat="43.53144" lon="5.29034">
        <ele>124.62805175781</ele>
        <time>2019-02-24T12:53:04Z</time>
      </trkpt>
      <trkpt lat="43.5315" lon="5.2903">
        <ele>125.58935546875</ele>
        <time>2019-02-24T12:53:11Z</time>
      </trkpt>
      <trkpt lat="43.53165" lon="5.29028">
        <ele>125.58935546875</ele>
        <time>2019-02-24T12:53:26Z</time>
      </trkpt>
      <trkpt lat="43.53183" lon="5.29024">
        <ele>126.06994628906</ele>
        <time>2019-02-24T12:53:43Z</time>
      </trkpt>
      <trkpt lat="43.53194" lon="5.29024">
        <ele>126.55065917969</ele>
        <time>2019-02-24T12:53:56Z</time>
      </trkpt>
      <trkpt lat="43.53202" lon="5.29027">
        <ele>126.55065917969</ele>
        <time>2019-02-24T12:54:03Z</time>
      </trkpt>
      <trkpt lat="43.53222" lon="5.29042">
        <ele>127.99255371094</ele>
        <time>2019-02-24T12:54:23Z</time>
      </trkpt>
      <trkpt lat="43.53237" lon="5.29045">
        <ele>128.47338867188</ele>
        <time>2019-02-24T12:54:38Z</time>
      </trkpt>
      <trkpt lat="43.53247" lon="5.29045">
        <ele>128.9541015625</ele>
        <time>2019-02-24T12:54:51Z</time>
      </trkpt>
      <trkpt lat="43.53268" lon="5.29045">
        <ele>129.43469238281</ele>
        <time>2019-02-24T12:55:07Z</time>
      </trkpt>
      <trkpt lat="43.53289" lon="5.29044">
        <ele>130.39599609375</ele>
        <time>2019-02-24T12:55:26Z</time>
      </trkpt>
      <trkpt lat="43.53297" lon="5.29043">
        <ele>130.87670898438</ele>
        <time>2019-02-24T12:55:35Z</time>
      </trkpt>
      <trkpt lat="43.53313" lon="5.2904">
        <ele>131.837890625</ele>
        <time>2019-02-24T12:55:51Z</time>
      </trkpt>
      <trkpt lat="43.53317" lon="5.29035">
        <ele>131.837890625</ele>
        <time>2019-02-24T12:55:55Z</time>
      </trkpt>
      <trkpt lat="43.53326" lon="5.29026">
        <ele>132.31860351562</ele>
        <time>2019-02-24T12:56:06Z</time>
      </trkpt>
      <trkpt lat="43.5333" lon="5.29022">
        <ele>132.79931640625</ele>
        <time>2019-02-24T12:56:11Z</time>
      </trkpt>
      <trkpt lat="43.53346" lon="5.29023">
        <ele>131.35729980469</ele>
        <time>2019-02-24T12:56:26Z</time>
      </trkpt>
      <trkpt lat="43.53365" lon="5.29024">
        <ele>131.837890625</ele>
        <time>2019-02-24T12:56:43Z</time>
      </trkpt>
      <trkpt lat="43.53382" lon="5.29023">
        <ele>132.79931640625</ele>
        <time>2019-02-24T12:56:58Z</time>
      </trkpt>
      <trkpt lat="43.53396" lon="5.29022">
        <ele>133.76049804688</ele>
        <time>2019-02-24T12:57:12Z</time>
      </trkpt>
      <trkpt lat="43.53401" lon="5.29016">
        <ele>133.76049804688</ele>
        <time>2019-02-24T12:57:19Z</time>
      </trkpt>
      <trkpt lat="43.53405" lon="5.29009">
        <ele>133.76049804688</ele>
        <time>2019-02-24T12:57:26Z</time>
      </trkpt>
      <trkpt lat="43.53422" lon="5.29001">
        <ele>133.76049804688</ele>
        <time>2019-02-24T12:57:42Z</time>
      </trkpt>
      <trkpt lat="43.53436" lon="5.28996">
        <ele>133.27990722656</ele>
        <time>2019-02-24T12:57:54Z</time>
      </trkpt>
      <trkpt lat="43.53453" lon="5.28995">
        <ele>134.72192382812</ele>
        <time>2019-02-24T12:58:10Z</time>
      </trkpt>
      <trkpt lat="43.53469" lon="5.28999">
        <ele>135.68310546875</ele>
        <time>2019-02-24T12:58:27Z</time>
      </trkpt>
      <trkpt lat="43.53479" lon="5.29002">
        <ele>137.60583496094</ele>
        <time>2019-02-24T12:58:42Z</time>
      </trkpt>
      <trkpt lat="43.53498" lon="5.29002">
        <ele>138.56726074219</ele>
        <time>2019-02-24T12:59:02Z</time>
      </trkpt>
      <trkpt lat="43.53515" lon="5.29006">
        <ele>140.48986816406</ele>
        <time>2019-02-24T12:59:20Z</time>
      </trkpt>
      <trkpt lat="43.53529" lon="5.29014">
        <ele>142.41247558594</ele>
        <time>2019-02-24T12:59:35Z</time>
      </trkpt>
      <trkpt lat="43.53532" lon="5.29015">
        <ele>141.93176269531</ele>
        <time>2019-02-24T12:59:37Z</time>
      </trkpt>
      <trkpt lat="43.53535" lon="5.29014">
        <ele>142.41247558594</ele>
        <time>2019-02-24T12:59:40Z</time>
      </trkpt>
      <trkpt lat="43.53541" lon="5.29006">
        <ele>142.41247558594</ele>
        <time>2019-02-24T12:59:48Z</time>
      </trkpt>
      <trkpt lat="43.53558" lon="5.28996">
        <ele>142.41247558594</ele>
        <time>2019-02-24T13:00:04Z</time>
      </trkpt>
      <trkpt lat="43.53577" lon="5.28994">
        <ele>142.41247558594</ele>
        <time>2019-02-24T13:00:21Z</time>
      </trkpt>
      <trkpt lat="43.53591" lon="5.28982">
        <ele>142.41247558594</ele>
        <time>2019-02-24T13:00:38Z</time>
      </trkpt>
      <trkpt lat="43.53599" lon="5.28976">
        <ele>143.85437011719</ele>
        <time>2019-02-24T13:00:52Z</time>
      </trkpt>
      <trkpt lat="43.53599" lon="5.28975">
        <ele>143.85437011719</ele>
        <time>2019-02-24T13:01:01Z</time>
      </trkpt>
      <trkpt lat="43.53611" lon="5.28973">
        <ele>144.81579589844</ele>
        <time>2019-02-24T13:01:14Z</time>
      </trkpt>
      <trkpt lat="43.53617" lon="5.28971">
        <ele>145.77709960938</ele>
        <time>2019-02-24T13:01:20Z</time>
      </trkpt>
      <trkpt lat="43.53628" lon="5.28967">
        <ele>144.33520507812</ele>
        <time>2019-02-24T13:01:32Z</time>
      </trkpt>
      <trkpt lat="43.53633" lon="5.28967">
        <ele>144.33520507812</ele>
        <time>2019-02-24T13:01:36Z</time>
      </trkpt>
      <trkpt lat="43.53647" lon="5.28965">
        <ele>143.85437011719</ele>
        <time>2019-02-24T13:01:48Z</time>
      </trkpt>
      <trkpt lat="43.53653" lon="5.28964">
        <ele>143.37365722656</ele>
        <time>2019-02-24T13:01:54Z</time>
      </trkpt>
      <trkpt lat="43.53667" lon="5.28946">
        <ele>144.81579589844</ele>
        <time>2019-02-24T13:02:13Z</time>
      </trkpt>
      <trkpt lat="43.5367" lon="5.28946">
        <ele>144.81579589844</ele>
        <time>2019-02-24T13:02:16Z</time>
      </trkpt>
      <trkpt lat="43.53696" lon="5.28947">
        <ele>145.77709960938</ele>
        <time>2019-02-24T13:02:39Z</time>
      </trkpt>
      <trkpt lat="43.53713" lon="5.28948">
        <ele>146.73840332031</ele>
        <time>2019-02-24T13:02:57Z</time>
      </trkpt>
      <trkpt lat="43.5373" lon="5.28957">
        <ele>148.18041992188</ele>
        <time>2019-02-24T13:03:13Z</time>
      </trkpt>
      <trkpt lat="43.53743" lon="5.2896">
        <ele>149.1416015625</ele>
        <time>2019-02-24T13:03:28Z</time>
      </trkpt>
      <trkpt lat="43.53752" lon="5.28963">
        <ele>150.58361816406</ele>
        <time>2019-02-24T13:03:39Z</time>
      </trkpt>
      <trkpt lat="43.53755" lon="5.28964">
        <ele>151.544921875</ele>
        <time>2019-02-24T13:03:49Z</time>
      </trkpt>
      <trkpt lat="43.53759" lon="5.28963">
        <ele>152.50634765625</ele>
        <time>2019-02-24T13:03:54Z</time>
      </trkpt>
      <trkpt lat="43.53771" lon="5.28955">
        <ele>154.42895507812</ele>
        <time>2019-02-24T13:04:10Z</time>
      </trkpt>
      <trkpt lat="43.53786" lon="5.28954">
        <ele>155.39025878906</ele>
        <time>2019-02-24T13:04:22Z</time>
      </trkpt>
      <trkpt lat="43.53801" lon="5.28951">
        <ele>156.3515625</ele>
        <time>2019-02-24T13:04:34Z</time>
      </trkpt>
      <trkpt lat="43.53821" lon="5.28952">
        <ele>157.31286621094</ele>
        <time>2019-02-24T13:04:51Z</time>
      </trkpt>
      <trkpt lat="43.53835" lon="5.28952">
        <ele>158.27416992188</ele>
        <time>2019-02-24T13:05:04Z</time>
      </trkpt>
      <trkpt lat="43.5384" lon="5.28957">
        <ele>158.27416992188</ele>
        <time>2019-02-24T13:05:17Z</time>
      </trkpt>
      <trkpt lat="43.53838" lon="5.28978">
        <ele>160.67749023438</ele>
        <time>2019-02-24T13:05:34Z</time>
      </trkpt>
      <trkpt lat="43.53836" lon="5.28985">
        <ele>162.11950683594</ele>
        <time>2019-02-24T13:05:41Z</time>
      </trkpt>
      <trkpt lat="43.53833" lon="5.29">
        <ele>164.04211425781</ele>
        <time>2019-02-24T13:05:55Z</time>
      </trkpt>
      <trkpt lat="43.53832" lon="5.29002">
        <ele>165.00341796875</ele>
        <time>2019-02-24T13:05:57Z</time>
      </trkpt>
      <trkpt lat="43.53831" lon="5.29011">
        <ele>165.96472167969</ele>
        <time>2019-02-24T13:06:06Z</time>
      </trkpt>
      <trkpt lat="43.53839" lon="5.29028">
        <ele>167.40673828125</ele>
        <time>2019-02-24T13:06:20Z</time>
      </trkpt>
      <trkpt lat="43.53843" lon="5.2904">
        <ele>169.81005859375</ele>
        <time>2019-02-24T13:06:39Z</time>
      </trkpt>
      <trkpt lat="43.53846" lon="5.29058">
        <ele>172.21325683594</ele>
        <time>2019-02-24T13:06:55Z</time>
      </trkpt>
      <trkpt lat="43.5385" lon="5.29073">
        <ele>174.61657714844</ele>
        <time>2019-02-24T13:07:10Z</time>
      </trkpt>
      <trkpt lat="43.53854" lon="5.29088">
        <ele>177.02001953125</ele>
        <time>2019-02-24T13:07:25Z</time>
      </trkpt>
      <trkpt lat="43.53849" lon="5.29101">
        <ele>179.42321777344</ele>
        <time>2019-02-24T13:07:39Z</time>
      </trkpt>
      <trkpt lat="43.53844" lon="5.29111">
        <ele>182.78784179688</ele>
        <time>2019-02-24T13:07:54Z</time>
      </trkpt>
      <trkpt lat="43.53843" lon="5.29125">
        <ele>185.67175292969</ele>
        <time>2019-02-24T13:08:12Z</time>
      </trkpt>
      <trkpt lat="43.53846" lon="5.29138">
        <ele>188.55578613281</ele>
        <time>2019-02-24T13:08:29Z</time>
      </trkpt>
      <trkpt lat="43.53846" lon="5.29151">
        <ele>190.958984375</ele>
        <time>2019-02-24T13:08:44Z</time>
      </trkpt>
      <trkpt lat="43.53847" lon="5.29161">
        <ele>194.80432128906</ele>
        <time>2019-02-24T13:09:01Z</time>
      </trkpt>
      <trkpt lat="43.5385" lon="5.29174">
        <ele>198.1689453125</ele>
        <time>2019-02-24T13:09:21Z</time>
      </trkpt>
      <trkpt lat="43.53852" lon="5.29182">
        <ele>201.05285644531</ele>
        <time>2019-02-24T13:09:35Z</time>
      </trkpt>
      <trkpt lat="43.53854" lon="5.29188">
        <ele>203.45617675781</ele>
        <time>2019-02-24T13:09:44Z</time>
      </trkpt>
      <trkpt lat="43.53858" lon="5.29191">
        <ele>206.34008789062</ele>
        <time>2019-02-24T13:10:10Z</time>
      </trkpt>
      <trkpt lat="43.53873" lon="5.29201">
        <ele>208.26281738281</ele>
        <time>2019-02-24T13:10:27Z</time>
      </trkpt>
      <trkpt lat="43.53872" lon="5.29201">
        <ele>208.74340820312</ele>
        <time>2019-02-24T13:10:43Z</time>
      </trkpt>
      <trkpt lat="43.5387" lon="5.29209">
        <ele>210.666015625</ele>
        <time>2019-02-24T13:11:13Z</time>
      </trkpt>
      <trkpt lat="43.53867" lon="5.29214">
        <ele>210.666015625</ele>
        <time>2019-02-24T13:11:25Z</time>
      </trkpt>
      <trkpt lat="43.53872" lon="5.29221">
        <ele>212.10803222656</ele>
        <time>2019-02-24T13:11:40Z</time>
      </trkpt>
      <trkpt lat="43.53859" lon="5.29235">
        <ele>215.47265625</ele>
        <time>2019-02-24T13:12:01Z</time>
      </trkpt>
      <trkpt lat="43.53861" lon="5.29249">
        <ele>217.39538574219</ele>
        <time>2019-02-24T13:12:22Z</time>
      </trkpt>
      <trkpt lat="43.53852" lon="5.29249">
        <ele>217.39538574219</ele>
        <time>2019-02-24T13:12:34Z</time>
      </trkpt>
      <trkpt lat="43.53857" lon="5.2925">
        <ele>216.91467285156</ele>
        <time>2019-02-24T13:12:51Z</time>
      </trkpt>
      <trkpt lat="43.53857" lon="5.29253">
        <ele>217.39538574219</ele>
        <time>2019-02-24T13:13:03Z</time>
      </trkpt>
      <trkpt lat="43.53857" lon="5.29273">
        <ele>217.8759765625</ele>
        <time>2019-02-24T13:13:18Z</time>
      </trkpt>
      <trkpt lat="43.53849" lon="5.29275">
        <ele>219.79858398438</ele>
        <time>2019-02-24T13:13:35Z</time>
      </trkpt>
      <trkpt lat="43.53837" lon="5.29272">
        <ele>223.16320800781</ele>
        <time>2019-02-24T13:13:52Z</time>
      </trkpt>
      <trkpt lat="43.53834" lon="5.29272">
        <ele>224.60522460938</ele>
        <time>2019-02-24T13:14:05Z</time>
      </trkpt>
      <trkpt lat="43.5383" lon="5.2927">
        <ele>226.04711914062</ele>
        <time>2019-02-24T13:14:17Z</time>
      </trkpt>
      <trkpt lat="43.53831" lon="5.29271">
        <ele>227.48913574219</ele>
        <time>2019-02-24T13:14:42Z</time>
      </trkpt>
      <trkpt lat="43.53818" lon="5.29279">
        <ele>230.373046875</ele>
        <time>2019-02-24T13:15:11Z</time>
      </trkpt>
      <trkpt lat="43.53804" lon="5.29291">
        <ele>233.25708007812</ele>
        <time>2019-02-24T13:15:36Z</time>
      </trkpt>
      <trkpt lat="43.53796" lon="5.29299">
        <ele>235.66027832031</ele>
        <time>2019-02-24T13:15:52Z</time>
      </trkpt>
      <trkpt lat="43.53795" lon="5.29307">
        <ele>238.06359863281</ele>
        <time>2019-02-24T13:16:08Z</time>
      </trkpt>
      <trkpt lat="43.53795" lon="5.29307">
        <ele>238.54431152344</ele>
        <time>2019-02-24T13:16:28Z</time>
      </trkpt>
      <trkpt lat="43.53789" lon="5.29317">
        <ele>239.02490234375</ele>
        <time>2019-02-24T13:17:26Z</time>
      </trkpt>
      <trkpt lat="43.53787" lon="5.29321">
        <ele>239.02490234375</ele>
        <time>2019-02-24T13:17:37Z</time>
      </trkpt>
      <trkpt lat="43.53785" lon="5.29323">
        <ele>239.02490234375</ele>
        <time>2019-02-24T13:17:39Z</time>
      </trkpt>
      <trkpt lat="43.53784" lon="5.29326">
        <ele>239.50549316406</ele>
        <time>2019-02-24T13:17:41Z</time>
      </trkpt>
      <trkpt lat="43.53773" lon="5.29337">
        <ele>241.90893554688</ele>
        <time>2019-02-24T13:17:56Z</time>
      </trkpt>
      <trkpt lat="43.5376" lon="5.29356">
        <ele>243.83154296875</ele>
        <time>2019-02-24T13:18:15Z</time>
      </trkpt>
      <trkpt lat="43.53751" lon="5.29369">
        <ele>244.31225585938</ele>
        <time>2019-02-24T13:18:29Z</time>
      </trkpt>
      <trkpt lat="43.5373" lon="5.29377">
        <ele>245.2734375</ele>
        <time>2019-02-24T13:18:49Z</time>
      </trkpt>
      <trkpt lat="43.53714" lon="5.29382">
        <ele>246.71545410156</ele>
        <time>2019-02-24T13:19:06Z</time>
      </trkpt>
      <trkpt lat="43.53697" lon="5.29391">
        <ele>247.6767578125</ele>
        <time>2019-02-24T13:19:22Z</time>
      </trkpt>
      <trkpt lat="43.53688" lon="5.29395">
        <ele>248.15759277344</ele>
        <time>2019-02-24T13:19:30Z</time>
      </trkpt>
      <trkpt lat="43.53675" lon="5.29402">
        <ele>248.63818359375</ele>
        <time>2019-02-24T13:19:44Z</time>
      </trkpt>
      <trkpt lat="43.53666" lon="5.29405">
        <ele>249.59948730469</ele>
        <time>2019-02-24T13:19:53Z</time>
      </trkpt>
      <trkpt lat="43.53649" lon="5.29414">
        <ele>249.59948730469</ele>
        <time>2019-02-24T13:20:08Z</time>
      </trkpt>
      <trkpt lat="43.53635" lon="5.29426">
        <ele>249.59948730469</ele>
        <time>2019-02-24T13:20:23Z</time>
      </trkpt>
      <trkpt lat="43.53625" lon="5.29445">
        <ele>250.08020019531</ele>
        <time>2019-02-24T13:20:40Z</time>
      </trkpt>
      <trkpt lat="43.53608" lon="5.29468">
        <ele>250.08020019531</ele>
        <time>2019-02-24T13:21:00Z</time>
      </trkpt>
      <trkpt lat="43.53602" lon="5.29479">
        <ele>250.56079101562</ele>
        <time>2019-02-24T13:21:08Z</time>
      </trkpt>
      <trkpt lat="43.53599" lon="5.2948">
        <ele>250.56079101562</ele>
        <time>2019-02-24T13:21:11Z</time>
      </trkpt>
      <trkpt lat="43.53597" lon="5.29484">
        <ele>250.56079101562</ele>
        <time>2019-02-24T13:21:15Z</time>
      </trkpt>
      <trkpt lat="43.53586" lon="5.2951">
        <ele>251.52209472656</ele>
        <time>2019-02-24T13:21:34Z</time>
      </trkpt>
      <trkpt lat="43.5358" lon="5.29534">
        <ele>251.52209472656</ele>
        <time>2019-02-24T13:21:49Z</time>
      </trkpt>
      <trkpt lat="43.53574" lon="5.2956">
        <ele>251.52209472656</ele>
        <time>2019-02-24T13:22:07Z</time>
      </trkpt>
      <trkpt lat="43.53573" lon="5.29562">
        <ele>251.04138183594</ele>
        <time>2019-02-24T13:22:09Z</time>
      </trkpt>
      <trkpt lat="43.53567" lon="5.29588">
        <ele>250.56079101562</ele>
        <time>2019-02-24T13:22:26Z</time>
      </trkpt>
      <trkpt lat="43.53563" lon="5.29611">
        <ele>250.56079101562</ele>
        <time>2019-02-24T13:22:44Z</time>
      </trkpt>
      <trkpt lat="43.53552" lon="5.29642">
        <ele>249.59948730469</ele>
        <time>2019-02-24T13:23:05Z</time>
      </trkpt>
      <trkpt lat="43.53543" lon="5.29678">
        <ele>249.11877441406</ele>
        <time>2019-02-24T13:23:28Z</time>
      </trkpt>
      <trkpt lat="43.53534" lon="5.2971">
        <ele>248.63818359375</ele>
        <time>2019-02-24T13:23:46Z</time>
      </trkpt>
      <trkpt lat="43.53529" lon="5.29726">
        <ele>248.63818359375</ele>
        <time>2019-02-24T13:23:55Z</time>
      </trkpt>
      <trkpt lat="43.53523" lon="5.29756">
        <ele>248.15759277344</ele>
        <time>2019-02-24T13:24:14Z</time>
      </trkpt>
      <trkpt lat="43.53514" lon="5.29789">
        <ele>247.19604492188</ele>
        <time>2019-02-24T13:24:35Z</time>
      </trkpt>
      <trkpt lat="43.53505" lon="5.29826">
        <ele>246.23486328125</ele>
        <time>2019-02-24T13:24:59Z</time>
      </trkpt>
      <trkpt lat="43.53497" lon="5.29857">
        <ele>245.75415039062</ele>
        <time>2019-02-24T13:25:19Z</time>
      </trkpt>
      <trkpt lat="43.53485" lon="5.29909">
        <ele>245.75415039062</ele>
        <time>2019-02-24T13:25:51Z</time>
      </trkpt>
      <trkpt lat="43.53483" lon="5.29912">
        <ele>245.2734375</ele>
        <time>2019-02-24T13:25:55Z</time>
      </trkpt>
      <trkpt lat="43.53481" lon="5.29915">
        <ele>245.75415039062</ele>
        <time>2019-02-24T13:25:59Z</time>
      </trkpt>
      <trkpt lat="43.53477" lon="5.29921">
        <ele>244.79284667969</ele>
        <time>2019-02-24T13:26:04Z</time>
      </trkpt>
      <trkpt lat="43.53478" lon="5.29948">
        <ele>244.79284667969</ele>
        <time>2019-02-24T13:26:22Z</time>
      </trkpt>
      <trkpt lat="43.5348" lon="5.29953">
        <ele>243.83154296875</ele>
        <time>2019-02-24T13:26:26Z</time>
      </trkpt>
      <trkpt lat="43.53482" lon="5.29961">
        <ele>244.31225585938</ele>
        <time>2019-02-24T13:26:37Z</time>
      </trkpt>
      <trkpt lat="43.53484" lon="5.29973">
        <ele>243.83154296875</ele>
        <time>2019-02-24T13:27:38Z</time>
      </trkpt>
      <trkpt lat="43.53478" lon="5.29977">
        <ele>243.35083007812</ele>
        <time>2019-02-24T13:27:44Z</time>
      </trkpt>
      <trkpt lat="43.53474" lon="5.29982">
        <ele>243.35083007812</ele>
        <time>2019-02-24T13:27:50Z</time>
      </trkpt>
      <trkpt lat="43.5346" lon="5.29988">
        <ele>243.35083007812</ele>
        <time>2019-02-24T13:28:03Z</time>
      </trkpt>
      <trkpt lat="43.53454" lon="5.2999">
        <ele>242.87023925781</ele>
        <time>2019-02-24T13:28:07Z</time>
      </trkpt>
      <trkpt lat="43.53447" lon="5.29998">
        <ele>242.3896484375</ele>
        <time>2019-02-24T13:28:16Z</time>
      </trkpt>
      <trkpt lat="43.53447" lon="5.30004">
        <ele>242.3896484375</ele>
        <time>2019-02-24T13:28:20Z</time>
      </trkpt>
      <trkpt lat="43.53452" lon="5.30042">
        <ele>241.90893554688</ele>
        <time>2019-02-24T13:28:44Z</time>
      </trkpt>
      <trkpt lat="43.53448" lon="5.30067">
        <ele>241.42822265625</ele>
        <time>2019-02-24T13:29:01Z</time>
      </trkpt>
      <trkpt lat="43.53444" lon="5.30095">
        <ele>241.42822265625</ele>
        <time>2019-02-24T13:29:18Z</time>
      </trkpt>
      <trkpt lat="43.53435" lon="5.30127">
        <ele>241.42822265625</ele>
        <time>2019-02-24T13:29:40Z</time>
      </trkpt>
      <trkpt lat="43.53425" lon="5.30152">
        <ele>241.90893554688</ele>
        <time>2019-02-24T13:30:01Z</time>
      </trkpt>
      <trkpt lat="43.53424" lon="5.3015">
        <ele>241.90893554688</ele>
        <time>2019-02-24T13:30:34Z</time>
      </trkpt>
      <trkpt lat="43.53427" lon="5.30155">
        <ele>242.87023925781</ele>
        <time>2019-02-24T13:32:54Z</time>
      </trkpt>
      <trkpt lat="43.53432" lon="5.30159">
        <ele>241.42822265625</ele>
        <time>2019-02-24T13:33:01Z</time>
      </trkpt>
      <trkpt lat="43.53433" lon="5.30166">
        <ele>240.94763183594</ele>
        <time>2019-02-24T13:33:08Z</time>
      </trkpt>
      <trkpt lat="43.53431" lon="5.302">
        <ele>239.50549316406</ele>
        <time>2019-02-24T13:33:30Z</time>
      </trkpt>
      <trkpt lat="43.53419" lon="5.30233">
        <ele>239.02490234375</ele>
        <time>2019-02-24T13:33:54Z</time>
      </trkpt>
      <trkpt lat="43.53395" lon="5.30255">
        <ele>239.50549316406</ele>
        <time>2019-02-24T13:34:19Z</time>
      </trkpt>
      <trkpt lat="43.53363" lon="5.30273">
        <ele>239.98620605469</ele>
        <time>2019-02-24T13:34:48Z</time>
      </trkpt>
      <trkpt lat="43.53357" lon="5.30276">
        <ele>239.02490234375</ele>
        <time>2019-02-24T13:34:54Z</time>
      </trkpt>
      <trkpt lat="43.53345" lon="5.30283">
        <ele>239.50549316406</ele>
        <time>2019-02-24T13:35:06Z</time>
      </trkpt>
      <trkpt lat="43.53342" lon="5.3029">
        <ele>239.02490234375</ele>
        <time>2019-02-24T13:35:11Z</time>
      </trkpt>
      <trkpt lat="43.53336" lon="5.30347">
        <ele>238.06359863281</ele>
        <time>2019-02-24T13:35:44Z</time>
      </trkpt>
      <trkpt lat="43.53331" lon="5.30403">
        <ele>235.1796875</ele>
        <time>2019-02-24T13:36:17Z</time>
      </trkpt>
      <trkpt lat="43.53324" lon="5.3045">
        <ele>232.29577636719</ele>
        <time>2019-02-24T13:36:44Z</time>
      </trkpt>
      <trkpt lat="43.53302" lon="5.30476">
        <ele>229.89233398438</ele>
        <time>2019-02-24T13:37:09Z</time>
      </trkpt>
      <trkpt lat="43.53281" lon="5.30486">
        <ele>229.41174316406</ele>
        <time>2019-02-24T13:37:27Z</time>
      </trkpt>
      <trkpt lat="43.53265" lon="5.30503">
        <ele>227.48913574219</ele>
        <time>2019-02-24T13:37:47Z</time>
      </trkpt>
      <trkpt lat="43.53263" lon="5.3051">
        <ele>226.52783203125</ele>
        <time>2019-02-24T13:38:07Z</time>
      </trkpt>
      <trkpt lat="43.53263" lon="5.30511">
        <ele>226.52783203125</ele>
        <time>2019-02-24T13:38:08Z</time>
      </trkpt>
      <trkpt lat="43.5327" lon="5.30526">
        <ele>225.0859375</ele>
        <time>2019-02-24T13:38:20Z</time>
      </trkpt>
      <trkpt lat="43.53297" lon="5.30544">
        <ele>221.72119140625</ele>
        <time>2019-02-24T13:38:44Z</time>
      </trkpt>
      <trkpt lat="43.53319" lon="5.30544">
        <ele>220.75988769531</ele>
        <time>2019-02-24T13:39:01Z</time>
      </trkpt>
      <trkpt lat="43.53341" lon="5.3054">
        <ele>218.83728027344</ele>
        <time>2019-02-24T13:39:20Z</time>
      </trkpt>
      <trkpt lat="43.53357" lon="5.3054">
        <ele>217.39538574219</ele>
        <time>2019-02-24T13:39:34Z</time>
      </trkpt>
      <trkpt lat="43.53365" lon="5.3054">
        <ele>215.95324707031</ele>
        <time>2019-02-24T13:39:42Z</time>
      </trkpt>
      <trkpt lat="43.53369" lon="5.30542">
        <ele>215.47265625</ele>
        <time>2019-02-24T13:39:45Z</time>
      </trkpt>
      <trkpt lat="43.53375" lon="5.30554">
        <ele>212.10803222656</ele>
        <time>2019-02-24T13:39:58Z</time>
      </trkpt>
      <trkpt lat="43.53375" lon="5.30561">
        <ele>211.62744140625</ele>
        <time>2019-02-24T13:40:00Z</time>
      </trkpt>
      <trkpt lat="43.53365" lon="5.30591">
        <ele>208.74340820312</ele>
        <time>2019-02-24T13:40:20Z</time>
      </trkpt>
      <trkpt lat="43.5335" lon="5.30621">
        <ele>205.85949707031</ele>
        <time>2019-02-24T13:40:43Z</time>
      </trkpt>
      <trkpt lat="43.53341" lon="5.30639">
        <ele>202.49487304688</ele>
        <time>2019-02-24T13:40:58Z</time>
      </trkpt>
      <trkpt lat="43.53326" lon="5.30658">
        <ele>199.13012695312</ele>
        <time>2019-02-24T13:41:16Z</time>
      </trkpt>
      <trkpt lat="43.53297" lon="5.30679">
        <ele>196.24633789062</ele>
        <time>2019-02-24T13:41:42Z</time>
      </trkpt>
      <trkpt lat="43.53278" lon="5.30691">
        <ele>193.3623046875</ele>
        <time>2019-02-24T13:42:01Z</time>
      </trkpt>
      <trkpt lat="43.5326" lon="5.30697">
        <ele>190.958984375</ele>
        <time>2019-02-24T13:42:18Z</time>
      </trkpt>
      <trkpt lat="43.53254" lon="5.30698">
        <ele>189.51696777344</ele>
        <time>2019-02-24T13:42:24Z</time>
      </trkpt>
      <trkpt lat="43.5325" lon="5.30699">
        <ele>189.03637695312</ele>
        <time>2019-02-24T13:42:41Z</time>
      </trkpt>
      <trkpt lat="43.5325" lon="5.30701">
        <ele>189.51696777344</ele>
        <time>2019-02-24T13:43:36Z</time>
      </trkpt>
      <trkpt lat="43.53249" lon="5.30702">
        <ele>188.55578613281</ele>
        <time>2019-02-24T13:44:16Z</time>
      </trkpt>
      <trkpt lat="43.53247" lon="5.30707">
        <ele>188.07507324219</ele>
        <time>2019-02-24T13:45:04Z</time>
      </trkpt>
      <trkpt lat="43.53237" lon="5.30712">
        <ele>188.07507324219</ele>
        <time>2019-02-24T13:45:13Z</time>
      </trkpt>
      <trkpt lat="43.53234" lon="5.30712">
        <ele>188.07507324219</ele>
        <time>2019-02-24T13:45:16Z</time>
      </trkpt>
      <trkpt lat="43.53227" lon="5.30709">
        <ele>188.07507324219</ele>
        <time>2019-02-24T13:45:22Z</time>
      </trkpt>
      <trkpt lat="43.53221" lon="5.30708">
        <ele>188.55578613281</ele>
        <time>2019-02-24T13:45:26Z</time>
      </trkpt>
      <trkpt lat="43.53218" lon="5.30709">
        <ele>188.07507324219</ele>
        <time>2019-02-24T13:45:28Z</time>
      </trkpt>
      <trkpt lat="43.53212" lon="5.30694">
        <ele>190.47839355469</ele>
        <time>2019-02-24T13:45:41Z</time>
      </trkpt>
      <trkpt lat="43.53208" lon="5.30693">
        <ele>190.958984375</ele>
        <time>2019-02-24T13:45:51Z</time>
      </trkpt>
      <trkpt lat="43.53208" lon="5.30694">
        <ele>190.958984375</ele>
        <time>2019-02-24T13:45:52Z</time>
      </trkpt>
      <trkpt lat="43.53187" lon="5.30692">
        <ele>191.43957519531</ele>
        <time>2019-02-24T13:46:09Z</time>
      </trkpt>
      <trkpt lat="43.53172" lon="5.30696">
        <ele>190.958984375</ele>
        <time>2019-02-24T13:46:23Z</time>
      </trkpt>
      <trkpt lat="43.53152" lon="5.30697">
        <ele>190.958984375</ele>
        <time>2019-02-24T13:46:40Z</time>
      </trkpt>
      <trkpt lat="43.5313" lon="5.30703">
        <ele>189.99768066406</ele>
        <time>2019-02-24T13:46:59Z</time>
      </trkpt>
      <trkpt lat="43.53117" lon="5.30705">
        <ele>189.99768066406</ele>
        <time>2019-02-24T13:47:12Z</time>
      </trkpt>
      <trkpt lat="43.5311" lon="5.30709">
        <ele>188.55578613281</ele>
        <time>2019-02-24T13:47:20Z</time>
      </trkpt>
      <trkpt lat="43.53097" lon="5.30707">
        <ele>186.63317871094</ele>
        <time>2019-02-24T13:47:36Z</time>
      </trkpt>
      <trkpt lat="43.53091" lon="5.30709">
        <ele>186.15246582031</ele>
        <time>2019-02-24T13:47:42Z</time>
      </trkpt>
      <trkpt lat="43.53089" lon="5.30708">
        <ele>186.15246582031</ele>
        <time>2019-02-24T13:47:44Z</time>
      </trkpt>
      <trkpt lat="43.53067" lon="5.30716">
        <ele>185.19116210938</ele>
        <time>2019-02-24T13:48:04Z</time>
      </trkpt>
      <trkpt lat="43.53047" lon="5.30722">
        <ele>184.71057128906</ele>
        <time>2019-02-24T13:48:25Z</time>
      </trkpt>
      <trkpt lat="43.53047" lon="5.30723">
        <ele>184.71057128906</ele>
        <time>2019-02-24T13:48:26Z</time>
      </trkpt>
      <trkpt lat="43.53035" lon="5.30725">
        <ele>186.15246582031</ele>
        <time>2019-02-24T13:48:41Z</time>
      </trkpt>
      <trkpt lat="43.53031" lon="5.3073">
        <ele>186.63317871094</ele>
        <time>2019-02-24T13:48:48Z</time>
      </trkpt>
      <trkpt lat="43.53015" lon="5.30752">
        <ele>185.19116210938</ele>
        <time>2019-02-24T13:49:09Z</time>
      </trkpt>
      <trkpt lat="43.53003" lon="5.30767">
        <ele>185.19116210938</ele>
        <time>2019-02-24T13:49:26Z</time>
      </trkpt>
      <trkpt lat="43.53006" lon="5.30778">
        <ele>182.78784179688</ele>
        <time>2019-02-24T13:49:41Z</time>
      </trkpt>
      <trkpt lat="43.53006" lon="5.30782">
        <ele>182.30712890625</ele>
        <time>2019-02-24T13:49:44Z</time>
      </trkpt>
      <trkpt lat="43.53007" lon="5.3079">
        <ele>182.30712890625</ele>
        <time>2019-02-24T13:49:48Z</time>
      </trkpt>
      <trkpt lat="43.53008" lon="5.30798">
        <ele>182.30712890625</ele>
        <time>2019-02-24T13:49:54Z</time>
      </trkpt>
      <trkpt lat="43.53025" lon="5.30821">
        <ele>181.82641601562</ele>
        <time>2019-02-24T13:50:15Z</time>
      </trkpt>
      <trkpt lat="43.53041" lon="5.30844">
        <ele>182.30712890625</ele>
        <time>2019-02-24T13:50:37Z</time>
      </trkpt>
      <trkpt lat="43.53053" lon="5.30876">
        <ele>183.26843261719</ele>
        <time>2019-02-24T13:51:00Z</time>
      </trkpt>
      <trkpt lat="43.53056" lon="5.3089">
        <ele>184.22985839844</ele>
        <time>2019-02-24T13:51:12Z</time>
      </trkpt>
      <trkpt lat="43.53055" lon="5.30894">
        <ele>184.22985839844</ele>
        <time>2019-02-24T13:51:18Z</time>
      </trkpt>
      <trkpt lat="43.5305" lon="5.3091">
        <ele>184.71057128906</ele>
        <time>2019-02-24T13:51:32Z</time>
      </trkpt>
      <trkpt lat="43.53045" lon="5.30924">
        <ele>186.15246582031</ele>
        <time>2019-02-24T13:51:44Z</time>
      </trkpt>
      <trkpt lat="43.53045" lon="5.30932">
        <ele>186.15246582031</ele>
        <time>2019-02-24T13:51:49Z</time>
      </trkpt>
      <trkpt lat="43.53042" lon="5.30945">
        <ele>186.63317871094</ele>
        <time>2019-02-24T13:52:00Z</time>
      </trkpt>
      <trkpt lat="43.53037" lon="5.30973">
        <ele>187.59436035156</ele>
        <time>2019-02-24T13:52:19Z</time>
      </trkpt>
      <trkpt lat="43.53037" lon="5.30977">
        <ele>188.07507324219</ele>
        <time>2019-02-24T13:52:22Z</time>
      </trkpt>
      <trkpt lat="43.53039" lon="5.31007">
        <ele>189.03637695312</ele>
        <time>2019-02-24T13:52:40Z</time>
      </trkpt>
      <trkpt lat="43.5304" lon="5.31016">
        <ele>188.55578613281</ele>
        <time>2019-02-24T13:52:47Z</time>
      </trkpt>
      <trkpt lat="43.53043" lon="5.31033">
        <ele>189.03637695312</ele>
        <time>2019-02-24T13:53:00Z</time>
      </trkpt>
      <trkpt lat="43.53048" lon="5.31058">
        <ele>189.03637695312</ele>
        <time>2019-02-24T13:53:18Z</time>
      </trkpt>
      <trkpt lat="43.53053" lon="5.31087">
        <ele>187.59436035156</ele>
        <time>2019-02-24T13:53:35Z</time>
      </trkpt>
      <trkpt lat="43.5306" lon="5.31116">
        <ele>186.15246582031</ele>
        <time>2019-02-24T13:53:56Z</time>
      </trkpt>
      <trkpt lat="43.53068" lon="5.31155">
        <ele>185.67175292969</ele>
        <time>2019-02-24T13:54:18Z</time>
      </trkpt>
      <trkpt lat="43.53067" lon="5.31171">
        <ele>185.67175292969</ele>
        <time>2019-02-24T13:54:27Z</time>
      </trkpt>
      <trkpt lat="43.53066" lon="5.31179">
        <ele>185.67175292969</ele>
        <time>2019-02-24T13:54:32Z</time>
      </trkpt>
      <trkpt lat="43.53056" lon="5.31188">
        <ele>186.63317871094</ele>
        <time>2019-02-24T13:54:45Z</time>
      </trkpt>
      <trkpt lat="43.53046" lon="5.31196">
        <ele>188.07507324219</ele>
        <time>2019-02-24T13:54:58Z</time>
      </trkpt>
      <trkpt lat="43.53031" lon="5.31204">
        <ele>189.51696777344</ele>
        <time>2019-02-24T13:55:15Z</time>
      </trkpt>
      <trkpt lat="43.53013" lon="5.31211">
        <ele>190.958984375</ele>
        <time>2019-02-24T13:55:33Z</time>
      </trkpt>
      <trkpt lat="43.53002" lon="5.31214">
        <ele>191.43957519531</ele>
        <time>2019-02-24T13:55:41Z</time>
      </trkpt>
      <trkpt lat="43.52997" lon="5.31219">
        <ele>191.92028808594</ele>
        <time>2019-02-24T13:55:49Z</time>
      </trkpt>
      <trkpt lat="43.52986" lon="5.31238">
        <ele>193.3623046875</ele>
        <time>2019-02-24T13:56:07Z</time>
      </trkpt>
      <trkpt lat="43.52976" lon="5.3125">
        <ele>194.80432128906</ele>
        <time>2019-02-24T13:56:20Z</time>
      </trkpt>
      <trkpt lat="43.52968" lon="5.31256">
        <ele>195.765625</ele>
        <time>2019-02-24T13:56:29Z</time>
      </trkpt>
      <trkpt lat="43.52951" lon="5.31265">
        <ele>196.72692871094</ele>
        <time>2019-02-24T13:56:47Z</time>
      </trkpt>
      <trkpt lat="43.52943" lon="5.31271">
        <ele>196.72692871094</ele>
        <time>2019-02-24T13:56:56Z</time>
      </trkpt>
      <trkpt lat="43.52929" lon="5.31285">
        <ele>197.68823242188</ele>
        <time>2019-02-24T13:57:11Z</time>
      </trkpt>
      <trkpt lat="43.52917" lon="5.31301">
        <ele>198.1689453125</ele>
        <time>2019-02-24T13:57:27Z</time>
      </trkpt>
      <trkpt lat="43.52913" lon="5.31303">
        <ele>198.1689453125</ele>
        <time>2019-02-24T13:57:31Z</time>
      </trkpt>
      <trkpt lat="43.52895" lon="5.31316">
        <ele>198.1689453125</ele>
        <time>2019-02-24T13:57:50Z</time>
      </trkpt>
      <trkpt lat="43.52876" lon="5.31314">
        <ele>199.13012695312</ele>
        <time>2019-02-24T13:58:08Z</time>
      </trkpt>
      <trkpt lat="43.52853" lon="5.31318">
        <ele>200.572265625</ele>
        <time>2019-02-24T13:58:28Z</time>
      </trkpt>
      <trkpt lat="43.52838" lon="5.31314">
        <ele>202.01428222656</ele>
        <time>2019-02-24T13:58:43Z</time>
      </trkpt>
      <trkpt lat="43.52827" lon="5.31318">
        <ele>202.49487304688</ele>
        <time>2019-02-24T13:58:53Z</time>
      </trkpt>
      <trkpt lat="43.52823" lon="5.31318">
        <ele>202.49487304688</ele>
        <time>2019-02-24T13:58:55Z</time>
      </trkpt>
      <trkpt lat="43.52808" lon="5.31322">
        <ele>202.97546386719</ele>
        <time>2019-02-24T13:59:10Z</time>
      </trkpt>
      <trkpt lat="43.5279" lon="5.31326">
        <ele>204.89807128906</ele>
        <time>2019-02-24T13:59:28Z</time>
      </trkpt>
      <trkpt lat="43.52769" lon="5.31326">
        <ele>205.37878417969</ele>
        <time>2019-02-24T13:59:46Z</time>
      </trkpt>
      <trkpt lat="43.52743" lon="5.31327">
        <ele>205.37878417969</ele>
        <time>2019-02-24T14:00:07Z</time>
      </trkpt>
      <trkpt lat="43.52736" lon="5.31328">
        <ele>204.89807128906</ele>
        <time>2019-02-24T14:00:12Z</time>
      </trkpt>
      <trkpt lat="43.52721" lon="5.3134">
        <ele>205.85949707031</ele>
        <time>2019-02-24T14:00:29Z</time>
      </trkpt>
      <trkpt lat="43.52719" lon="5.31341">
        <ele>205.85949707031</ele>
        <time>2019-02-24T14:00:30Z</time>
      </trkpt>
      <trkpt lat="43.52712" lon="5.31342">
        <ele>205.85949707031</ele>
        <time>2019-02-24T14:00:34Z</time>
      </trkpt>
      <trkpt lat="43.52686" lon="5.31345">
        <ele>205.85949707031</ele>
        <time>2019-02-24T14:00:55Z</time>
      </trkpt>
      <trkpt lat="43.52657" lon="5.31355">
        <ele>205.85949707031</ele>
        <time>2019-02-24T14:01:19Z</time>
      </trkpt>
      <trkpt lat="43.52629" lon="5.31363">
        <ele>204.89807128906</ele>
        <time>2019-02-24T14:01:42Z</time>
      </trkpt>
      <trkpt lat="43.52602" lon="5.31372">
        <ele>203.93688964844</ele>
        <time>2019-02-24T14:02:06Z</time>
      </trkpt>
      <trkpt lat="43.52575" lon="5.3138">
        <ele>202.49487304688</ele>
        <time>2019-02-24T14:02:30Z</time>
      </trkpt>
      <trkpt lat="43.52546" lon="5.31389">
        <ele>201.53356933594</ele>
        <time>2019-02-24T14:02:55Z</time>
      </trkpt>
      <trkpt lat="43.5252" lon="5.31396">
        <ele>201.53356933594</ele>
        <time>2019-02-24T14:03:19Z</time>
      </trkpt>
      <trkpt lat="43.52496" lon="5.31404">
        <ele>201.05285644531</ele>
        <time>2019-02-24T14:03:41Z</time>
      </trkpt>
      <trkpt lat="43.52464" lon="5.31407">
        <ele>200.572265625</ele>
        <time>2019-02-24T14:04:08Z</time>
      </trkpt>
      <trkpt lat="43.52449" lon="5.31399">
        <ele>199.13012695312</ele>
        <time>2019-02-24T14:04:25Z</time>
      </trkpt>
      <trkpt lat="43.52429" lon="5.31379">
        <ele>197.68823242188</ele>
        <time>2019-02-24T14:04:49Z</time>
      </trkpt>
      <trkpt lat="43.52412" lon="5.3136">
        <ele>194.32373046875</ele>
        <time>2019-02-24T14:05:08Z</time>
      </trkpt>
      <trkpt lat="43.52404" lon="5.31357">
        <ele>193.84301757812</ele>
        <time>2019-02-24T14:05:15Z</time>
      </trkpt>
      <trkpt lat="43.52376" lon="5.31359">
        <ele>190.958984375</ele>
        <time>2019-02-24T14:05:41Z</time>
      </trkpt>
      <trkpt lat="43.52357" lon="5.31359">
        <ele>187.59436035156</ele>
        <time>2019-02-24T14:05:59Z</time>
      </trkpt>
      <trkpt lat="43.5235" lon="5.31357">
        <ele>187.59436035156</ele>
        <time>2019-02-24T14:06:06Z</time>
      </trkpt>
      <trkpt lat="43.52341" lon="5.31364">
        <ele>186.63317871094</ele>
        <time>2019-02-24T14:06:15Z</time>
      </trkpt>
      <trkpt lat="43.52339" lon="5.31366">
        <ele>186.63317871094</ele>
        <time>2019-02-24T14:06:17Z</time>
      </trkpt>
      <trkpt lat="43.52338" lon="5.31372">
        <ele>186.63317871094</ele>
        <time>2019-02-24T14:06:21Z</time>
      </trkpt>
      <trkpt lat="43.52339" lon="5.31393">
        <ele>185.19116210938</ele>
        <time>2019-02-24T14:06:34Z</time>
      </trkpt>
      <trkpt lat="43.52339" lon="5.31394">
        <ele>185.19116210938</ele>
        <time>2019-02-24T14:06:35Z</time>
      </trkpt>
      <trkpt lat="43.52338" lon="5.31401">
        <ele>185.19116210938</ele>
        <time>2019-02-24T14:06:40Z</time>
      </trkpt>
      <trkpt lat="43.52337" lon="5.31404">
        <ele>185.19116210938</ele>
        <time>2019-02-24T14:06:42Z</time>
      </trkpt>
      <trkpt lat="43.52324" lon="5.31428">
        <ele>183.26843261719</ele>
        <time>2019-02-24T14:07:02Z</time>
      </trkpt>
      <trkpt lat="43.5232" lon="5.31449">
        <ele>181.82641601562</ele>
        <time>2019-02-24T14:07:15Z</time>
      </trkpt>
      <trkpt lat="43.5232" lon="5.31422">
        <ele>185.07421875</ele>
      </trkpt>
      <trkpt lat="43.52294" lon="5.31457">
        <ele>182.0390625</ele>
      </trkpt>
      <trkpt lat="43.52285" lon="5.31457">
        <ele>181.33984375</ele>
      </trkpt>
      <trkpt lat="43.52277" lon="5.31459">
        <ele>180.765625</ele>
      </trkpt>
      <trkpt lat="43.5227" lon="5.31461">
        <ele>180.31640625</ele>
      </trkpt>
      <trkpt lat="43.52263" lon="5.31465">
        <ele>179.9140625</ele>
      </trkpt>
      <trkpt lat="43.52256" lon="5.31469">
        <ele>179.53125</ele>
      </trkpt>
      <trkpt lat="43.52248" lon="5.31475">
        <ele>178.953125</ele>
      </trkpt>
      <trkpt lat="43.52242" lon="5.31481">
        <ele>178.3515625</ele>
      </trkpt>
      <trkpt lat="43.52236" lon="5.31487">
        <ele>177.99609375</ele>
      </trkpt>
      <trkpt lat="43.52229" lon="5.31493">
        <ele>177.89453125</ele>
      </trkpt>
      <trkpt lat="43.52223" lon="5.31498">
        <ele>177.69140625</ele>
      </trkpt>
      <trkpt lat="43.52217" lon="5.31504">
        <ele>177.42578125</ele>
      </trkpt>
      <trkpt lat="43.52209" lon="5.31508">
        <ele>177.04296875</ele>
      </trkpt>
      <trkpt lat="43.52201" lon="5.31512">
        <ele>176.3203125</ele>
      </trkpt>
      <trkpt lat="43.52193" lon="5.31514">
        <ele>175.66796875</ele>
      </trkpt>
      <trkpt lat="43.52186" lon="5.31518">
        <ele>175.04296875</ele>
      </trkpt>
      <trkpt lat="43.5218" lon="5.3152">
        <ele>174.48828125</ele>
      </trkpt>
      <trkpt lat="43.52172" lon="5.3152">
        <ele>173.90625</ele>
      </trkpt>
      <trkpt lat="43.52161" lon="5.3152">
        <ele>173.12890625</ele>
      </trkpt>
      <trkpt lat="43.52153" lon="5.3152">
        <ele>172.515625</ele>
      </trkpt>
      <trkpt lat="43.52145" lon="5.31522">
        <ele>171.59765625</ele>
      </trkpt>
      <trkpt lat="43.52136" lon="5.31522">
        <ele>170.7578125</ele>
      </trkpt>
      <trkpt lat="43.5213" lon="5.31526">
        <ele>169.67578125</ele>
      </trkpt>
      <trkpt lat="43.52123" lon="5.31528">
        <ele>168.68359375</ele>
      </trkpt>
      <trkpt lat="43.52115" lon="5.3153">
        <ele>167.453125</ele>
      </trkpt>
      <trkpt lat="43.52106" lon="5.3153">
        <ele>166.28515625</ele>
      </trkpt>
      <trkpt lat="43.52097" lon="5.31531">
        <ele>164.8984375</ele>
      </trkpt>
      <trkpt lat="43.52088" lon="5.31531">
        <ele>163.4140625</ele>
      </trkpt>
      <trkpt lat="43.5208" lon="5.31531">
        <ele>162.13671875</ele>
      </trkpt>
      <trkpt lat="43.5207" lon="5.31531">
        <ele>160.65625</ele>
      </trkpt>
      <trkpt lat="43.52061" lon="5.31531">
        <ele>160.046875</ele>
      </trkpt>
      <trkpt lat="43.52053" lon="5.3153">
        <ele>160.1328125</ele>
      </trkpt>
      <trkpt lat="43.52044" lon="5.3153">
        <ele>159.546875</ele>
      </trkpt>
      <trkpt lat="43.52035" lon="5.3153">
        <ele>159.19140625</ele>
      </trkpt>
      <trkpt lat="43.52026" lon="5.3153">
        <ele>158.796875</ele>
      </trkpt>
      <trkpt lat="43.52017" lon="5.3153">
        <ele>158.3984375</ele>
      </trkpt>
      <trkpt lat="43.5201" lon="5.31533">
        <ele>156.80859375</ele>
      </trkpt>
      <trkpt lat="43.52004" lon="5.31537">
        <ele>155.3515625</ele>
      </trkpt>
      <trkpt lat="43.51996" lon="5.31541">
        <ele>154</ele>
      </trkpt>
      <trkpt lat="43.51988" lon="5.31541">
        <ele>154.25</ele>
      </trkpt>
      <trkpt lat="43.5198" lon="5.31541">
        <ele>154.28125</ele>
      </trkpt>
      <trkpt lat="43.51971" lon="5.31541">
        <ele>154.28125</ele>
      </trkpt>
      <trkpt lat="43.51964" lon="5.31545">
        <ele>152.59765625</ele>
      </trkpt>
      <trkpt lat="43.51957" lon="5.31549">
        <ele>150.9140625</ele>
      </trkpt>
      <trkpt lat="43.51949" lon="5.31549">
        <ele>150.9140625</ele>
      </trkpt>
      <trkpt lat="43.51941" lon="5.31549">
        <ele>150.9140625</ele>
      </trkpt>
      <trkpt lat="43.51932" lon="5.31549">
        <ele>150.90625</ele>
      </trkpt>
      <trkpt lat="43.51924" lon="5.31549">
        <ele>149.98828125</ele>
      </trkpt>
      <trkpt lat="43.51914" lon="5.31549">
        <ele>148.91796875</ele>
      </trkpt>
      <trkpt lat="43.51909" lon="5.31543">
        <ele>150.484375</ele>
      </trkpt>
      <trkpt lat="43.51905" lon="5.31531">
        <ele>154.39453125</ele>
      </trkpt>
      <trkpt lat="43.51901" lon="5.3152">
        <ele>158.1328125</ele>
      </trkpt>
      <trkpt lat="43.51898" lon="5.3151">
        <ele>161.2734375</ele>
      </trkpt>
      <trkpt lat="43.51894" lon="5.31504">
        <ele>162.5</ele>
      </trkpt>
      <trkpt lat="43.51889" lon="5.31496">
        <ele>164.0390625</ele>
      </trkpt>
      <trkpt lat="43.51882" lon="5.31494">
        <ele>162.9375</ele>
      </trkpt>
      <trkpt lat="43.51876" lon="5.31489">
        <ele>163.58203125</ele>
      </trkpt>
      <trkpt lat="43.5187" lon="5.31481">
        <ele>161.30078125</ele>
      </trkpt>
      <trkpt lat="43.51866" lon="5.31471">
        <ele>160.703125</ele>
      </trkpt>
      <trkpt lat="43.51863" lon="5.31461">
        <ele>161.1171875</ele>
      </trkpt>
      <trkpt lat="43.5186" lon="5.31452">
        <ele>161.4296875</ele>
      </trkpt>
      <trkpt lat="43.51858" lon="5.31442">
        <ele>161.5234375</ele>
      </trkpt>
      <trkpt lat="43.51852" lon="5.31436">
        <ele>159.08984375</ele>
      </trkpt>
      <trkpt lat="43.51851" lon="5.31426">
        <ele>160.53125</ele>
      </trkpt>
      <trkpt lat="43.51849" lon="5.31415">
        <ele>162.140625</ele>
      </trkpt>
      <trkpt lat="43.51848" lon="5.31405">
        <ele>163.43359375</ele>
      </trkpt>
      <trkpt lat="43.51845" lon="5.31395">
        <ele>164.03125</ele>
      </trkpt>
      <trkpt lat="43.51844" lon="5.31385">
        <ele>165.546875</ele>
      </trkpt>
      <trkpt lat="43.51849" lon="5.31389">
        <ele>167.50390625</ele>
      </trkpt>
      <trkpt lat="43.51854" lon="5.31395">
        <ele>168.3828125</ele>
      </trkpt>
      <trkpt lat="43.51858" lon="5.31403">
        <ele>169.125</ele>
      </trkpt>
      <trkpt lat="43.5186" lon="5.31413">
        <ele>168.9765625</ele>
      </trkpt>
      <trkpt lat="43.51863" lon="5.3142">
        <ele>169.33203125</ele>
      </trkpt>
      <trkpt lat="43.51866" lon="5.3143">
        <ele>169.42578125</ele>
      </trkpt>
      <trkpt lat="43.5187" lon="5.3144">
        <ele>170.45703125</ele>
      </trkpt>
      <trkpt lat="43.51872" lon="5.3145">
        <ele>170.796875</ele>
      </trkpt>
      <trkpt lat="43.51878" lon="5.31455">
        <ele>172.9609375</ele>
      </trkpt>
      <trkpt lat="43.51883" lon="5.31463">
        <ele>172.32421875</ele>
      </trkpt>
      <trkpt lat="43.51889" lon="5.31469">
        <ele>172.33203125</ele>
      </trkpt>
      <trkpt lat="43.51893" lon="5.31479">
        <ele>171.32421875</ele>
      </trkpt>
      <trkpt lat="43.51895" lon="5.31489">
        <ele>168.84765625</ele>
      </trkpt>
      <trkpt lat="43.51899" lon="5.31498">
        <ele>166.17578125</ele>
      </trkpt>
      <trkpt lat="43.51903" lon="5.31506">
        <ele>164.171875</ele>
      </trkpt>
      <trkpt lat="43.51906" lon="5.31514">
        <ele>161.53515625</ele>
      </trkpt>
      <trkpt lat="43.51911" lon="5.31518">
        <ele>160.76953125</ele>
      </trkpt>
      <trkpt lat="43.5192" lon="5.3152">
        <ele>161.1640625</ele>
      </trkpt>
      <trkpt lat="43.51926" lon="5.31522">
        <ele>161.359375</ele>
      </trkpt>
      <trkpt lat="43.51936" lon="5.31522">
        <ele>162.14453125</ele>
      </trkpt>
      <trkpt lat="43.51942" lon="5.31526">
        <ele>160.6015625</ele>
      </trkpt>
      <trkpt lat="43.51949" lon="5.31528">
        <ele>159.828125</ele>
      </trkpt>
      <trkpt lat="43.51957" lon="5.31528">
        <ele>159.828125</ele>
      </trkpt>
      <trkpt lat="43.51965" lon="5.31528">
        <ele>159.828125</ele>
      </trkpt>
      <trkpt lat="43.51973" lon="5.31528">
        <ele>159.828125</ele>
      </trkpt>
      <trkpt lat="43.51982" lon="5.31528">
        <ele>159.828125</ele>
      </trkpt>
      <trkpt lat="43.5199" lon="5.31528">
        <ele>159.7734375</ele>
      </trkpt>
      <trkpt lat="43.51999" lon="5.31528">
        <ele>159.55078125</ele>
      </trkpt>
      <trkpt lat="43.52006" lon="5.31524">
        <ele>161.03125</ele>
      </trkpt>
      <trkpt lat="43.52013" lon="5.31522">
        <ele>161.7421875</ele>
      </trkpt>
      <trkpt lat="43.52019" lon="5.3152">
        <ele>162.56640625</ele>
      </trkpt>
      <trkpt lat="43.52027" lon="5.31518">
        <ele>163.34375</ele>
      </trkpt>
      <trkpt lat="43.52037" lon="5.31518">
        <ele>163.3125</ele>
      </trkpt>
      <trkpt lat="43.52045" lon="5.31518">
        <ele>163.390625</ele>
      </trkpt>
      <trkpt lat="43.52053" lon="5.31518">
        <ele>163.76953125</ele>
      </trkpt>
      <trkpt lat="43.52061" lon="5.3152">
        <ele>163.5625</ele>
      </trkpt>
      <trkpt lat="43.52069" lon="5.31522">
        <ele>163.39453125</ele>
      </trkpt>
      <trkpt lat="43.52077" lon="5.31522">
        <ele>164.26953125</ele>
      </trkpt>
      <trkpt lat="43.52085" lon="5.31522">
        <ele>165.234375</ele>
      </trkpt>
      <trkpt lat="43.52092" lon="5.3152">
        <ele>166.44140625</ele>
      </trkpt>
      <trkpt lat="43.521" lon="5.31518">
        <ele>167.6640625</ele>
      </trkpt>
      <trkpt lat="43.52108" lon="5.31518">
        <ele>168.421875</ele>
      </trkpt>
      <trkpt lat="43.52116" lon="5.31514">
        <ele>169.69921875</ele>
      </trkpt>
      <trkpt lat="43.52123" lon="5.31512">
        <ele>170.4921875</ele>
      </trkpt>
      <trkpt lat="43.52132" lon="5.31512">
        <ele>171.23046875</ele>
      </trkpt>
      <trkpt lat="43.52141" lon="5.31512">
        <ele>171.8671875</ele>
      </trkpt>
      <trkpt lat="43.52147" lon="5.31514">
        <ele>172.29296875</ele>
      </trkpt>
      <trkpt lat="43.52153" lon="5.31518">
        <ele>172.58984375</ele>
      </trkpt>
      <trkpt lat="43.52159" lon="5.31524">
        <ele>172.890625</ele>
      </trkpt>
      <trkpt lat="43.52165" lon="5.31528">
        <ele>173.13671875</ele>
      </trkpt>
      <trkpt lat="43.5217" lon="5.31535">
        <ele>173.24609375</ele>
      </trkpt>
      <trkpt lat="43.52176" lon="5.31543">
        <ele>173.30859375</ele>
      </trkpt>
      <trkpt lat="43.52182" lon="5.31549">
        <ele>173.62890625</ele>
      </trkpt>
      <trkpt lat="43.52189" lon="5.31553">
        <ele>173.97265625</ele>
      </trkpt>
      <trkpt lat="43.52196" lon="5.31555">
        <ele>174.390625</ele>
      </trkpt>
      <trkpt lat="43.52201" lon="5.31563">
        <ele>174.49609375</ele>
      </trkpt>
      <trkpt lat="43.52208" lon="5.31569">
        <ele>174.64453125</ele>
      </trkpt>
      <trkpt lat="43.52213" lon="5.31572">
        <ele>174.609375</ele>
      </trkpt>
      <trkpt lat="43.52221" lon="5.31574">
        <ele>174.76171875</ele>
      </trkpt>
      <trkpt lat="43.52228" lon="5.3158">
        <ele>174.58203125</ele>
      </trkpt>
      <trkpt lat="43.52235" lon="5.31584">
        <ele>174.54296875</ele>
      </trkpt>
      <trkpt lat="43.5224" lon="5.31588">
        <ele>174.4765625</ele>
      </trkpt>
      <trkpt lat="43.52246" lon="5.31592">
        <ele>174.37890625</ele>
      </trkpt>
      <trkpt lat="43.52254" lon="5.31596">
        <ele>174.3828125</ele>
      </trkpt>
      <trkpt lat="43.52259" lon="5.316">
        <ele>174.296875</ele>
      </trkpt>
      <trkpt lat="43.52265" lon="5.31604">
        <ele>174.20703125</ele>
      </trkpt>
      <trkpt lat="43.5227" lon="5.31607">
        <ele>174.20703125</ele>
      </trkpt>
      <trkpt lat="43.52275" lon="5.31613">
        <ele>173.9921875</ele>
      </trkpt>
      <trkpt lat="43.52278" lon="5.31617">
        <ele>173.765625</ele>
      </trkpt>
      <trkpt lat="43.52288" lon="5.31592">
        <ele>177.50061035156</ele>
        <time>2019-02-24T14:09:03Z</time>
      </trkpt>
      <trkpt lat="43.52291" lon="5.31618">
        <ele>177.02001953125</ele>
        <time>2019-02-24T14:09:20Z</time>
      </trkpt>
      <trkpt lat="43.52292" lon="5.31621">
        <ele>176.53930664062</ele>
        <time>2019-02-24T14:09:22Z</time>
      </trkpt>
      <trkpt lat="43.52309" lon="5.3163">
        <ele>177.02001953125</ele>
        <time>2019-02-24T14:09:39Z</time>
      </trkpt>
      <trkpt lat="43.52318" lon="5.31635">
        <ele>177.02001953125</ele>
        <time>2019-02-24T14:09:45Z</time>
      </trkpt>
      <trkpt lat="43.52329" lon="5.31649">
        <ele>173.6552734375</ele>
        <time>2019-02-24T14:10:02Z</time>
      </trkpt>
      <trkpt lat="43.52329" lon="5.31652">
        <ele>173.17468261719</ele>
        <time>2019-02-24T14:10:04Z</time>
      </trkpt>
      <trkpt lat="43.52332" lon="5.3167">
        <ele>169.81005859375</ele>
        <time>2019-02-24T14:10:16Z</time>
      </trkpt>
      <trkpt lat="43.52332" lon="5.31671">
        <ele>169.81005859375</ele>
        <time>2019-02-24T14:10:17Z</time>
      </trkpt>
      <trkpt lat="43.52329" lon="5.31679">
        <ele>169.32946777344</ele>
        <time>2019-02-24T14:10:29Z</time>
      </trkpt>
      <trkpt lat="43.52333" lon="5.31685">
        <ele>168.36804199219</ele>
        <time>2019-02-24T14:10:51Z</time>
      </trkpt>
      <trkpt lat="43.52336" lon="5.3169">
        <ele>168.84875488281</ele>
        <time>2019-02-24T14:10:54Z</time>
      </trkpt>
      <trkpt lat="43.52336" lon="5.31711">
        <ele>165.48413085938</ele>
        <time>2019-02-24T14:11:09Z</time>
      </trkpt>
      <trkpt lat="43.52337" lon="5.31714">
        <ele>164.52270507812</ele>
        <time>2019-02-24T14:11:11Z</time>
      </trkpt>
      <trkpt lat="43.52346" lon="5.3172">
        <ele>163.5615234375</ele>
        <time>2019-02-24T14:11:22Z</time>
      </trkpt>
      <trkpt lat="43.52346" lon="5.3172">
        <ele>163.5615234375</ele>
        <time>2019-02-24T14:11:39Z</time>
      </trkpt>
      <trkpt lat="43.52344" lon="5.31719">
        <ele>163.5615234375</ele>
        <time>2019-02-24T14:11:51Z</time>
      </trkpt>
      <trkpt lat="43.52335" lon="5.31723">
        <ele>163.5615234375</ele>
        <time>2019-02-24T14:12:10Z</time>
      </trkpt>
      <trkpt lat="43.52336" lon="5.31724">
        <ele>163.5615234375</ele>
        <time>2019-02-24T14:12:28Z</time>
      </trkpt>
      <trkpt lat="43.52336" lon="5.31723">
        <ele>163.5615234375</ele>
        <time>2019-02-24T14:12:55Z</time>
      </trkpt>
      <trkpt lat="43.52337" lon="5.31724">
        <ele>164.04211425781</ele>
        <time>2019-02-24T14:13:29Z</time>
      </trkpt>
      <trkpt lat="43.52337" lon="5.31725">
        <ele>164.04211425781</ele>
        <time>2019-02-24T14:14:08Z</time>
      </trkpt>
      <trkpt lat="43.52336" lon="5.31725">
        <ele>164.04211425781</ele>
        <time>2019-02-24T14:14:58Z</time>
      </trkpt>
      <trkpt lat="43.52336" lon="5.31724">
        <ele>164.52270507812</ele>
        <time>2019-02-24T14:15:55Z</time>
      </trkpt>
      <trkpt lat="43.52335" lon="5.31729">
        <ele>164.52270507812</ele>
        <time>2019-02-24T14:16:13Z</time>
      </trkpt>
      <trkpt lat="43.52332" lon="5.31733">
        <ele>164.04211425781</ele>
        <time>2019-02-24T14:16:28Z</time>
      </trkpt>
      <trkpt lat="43.5233" lon="5.31737">
        <ele>164.52270507812</ele>
        <time>2019-02-24T14:16:32Z</time>
      </trkpt>
      <trkpt lat="43.52302" lon="5.31751">
        <ele>163.08081054688</ele>
        <time>2019-02-24T14:16:57Z</time>
      </trkpt>
      <trkpt lat="43.52274" lon="5.31773">
        <ele>161.63891601562</ele>
        <time>2019-02-24T14:17:22Z</time>
      </trkpt>
      <trkpt lat="43.52271" lon="5.31777">
        <ele>161.158203125</ele>
        <time>2019-02-24T14:17:26Z</time>
      </trkpt>
      <trkpt lat="43.52267" lon="5.31778">
        <ele>160.67749023438</ele>
        <time>2019-02-24T14:17:30Z</time>
      </trkpt>
      <trkpt lat="43.52255" lon="5.31807">
        <ele>159.71618652344</ele>
        <time>2019-02-24T14:17:50Z</time>
      </trkpt>
      <trkpt lat="43.52243" lon="5.31831">
        <ele>160.19689941406</ele>
        <time>2019-02-24T14:18:10Z</time>
      </trkpt>
      <trkpt lat="43.5223" lon="5.31854">
        <ele>159.23547363281</ele>
        <time>2019-02-24T14:18:29Z</time>
      </trkpt>
      <trkpt lat="43.52229" lon="5.31888">
        <ele>157.79357910156</ele>
        <time>2019-02-24T14:18:47Z</time>
      </trkpt>
      <trkpt lat="43.52221" lon="5.31913">
        <ele>156.83215332031</ele>
        <time>2019-02-24T14:19:04Z</time>
      </trkpt>
      <trkpt lat="43.52216" lon="5.31921">
        <ele>157.31286621094</ele>
        <time>2019-02-24T14:19:08Z</time>
      </trkpt>
      <trkpt lat="43.52215" lon="5.31922">
        <ele>156.83215332031</ele>
        <time>2019-02-24T14:19:10Z</time>
      </trkpt>
      <trkpt lat="43.52208" lon="5.31931">
        <ele>156.83215332031</ele>
        <time>2019-02-24T14:19:17Z</time>
      </trkpt>
      <trkpt lat="43.52205" lon="5.31932">
        <ele>156.3515625</ele>
        <time>2019-02-24T14:19:19Z</time>
      </trkpt>
      <trkpt lat="43.52199" lon="5.3194">
        <ele>155.87097167969</ele>
        <time>2019-02-24T14:19:27Z</time>
      </trkpt>
      <trkpt lat="43.52191" lon="5.31963">
        <ele>154.90954589844</ele>
        <time>2019-02-24T14:19:43Z</time>
      </trkpt>
      <trkpt lat="43.52182" lon="5.31988">
        <ele>154.42895507812</ele>
        <time>2019-02-24T14:19:57Z</time>
      </trkpt>
      <trkpt lat="43.52169" lon="5.32006">
        <ele>153.94836425781</ele>
        <time>2019-02-24T14:20:12Z</time>
      </trkpt>
      <trkpt lat="43.52165" lon="5.32009">
        <ele>153.46765136719</ele>
        <time>2019-02-24T14:20:22Z</time>
      </trkpt>
      <trkpt lat="43.52165" lon="5.32011">
        <ele>153.46765136719</ele>
        <time>2019-02-24T14:20:24Z</time>
      </trkpt>
      <trkpt lat="43.52159" lon="5.32051">
        <ele>151.06420898438</ele>
        <time>2019-02-24T14:20:50Z</time>
      </trkpt>
      <trkpt lat="43.52147" lon="5.32075">
        <ele>150.58361816406</ele>
        <time>2019-02-24T14:21:07Z</time>
      </trkpt>
      <trkpt lat="43.52135" lon="5.32097">
        <ele>148.66101074219</ele>
        <time>2019-02-24T14:21:26Z</time>
      </trkpt>
      <trkpt lat="43.52119" lon="5.32119">
        <ele>146.2578125</ele>
        <time>2019-02-24T14:21:46Z</time>
      </trkpt>
      <trkpt lat="43.52108" lon="5.32133">
        <ele>144.81579589844</ele>
        <time>2019-02-24T14:22:00Z</time>
      </trkpt>
      <trkpt lat="43.52091" lon="5.32152">
        <ele>142.89306640625</ele>
        <time>2019-02-24T14:22:18Z</time>
      </trkpt>
      <trkpt lat="43.52075" lon="5.32179">
        <ele>142.41247558594</ele>
        <time>2019-02-24T14:22:37Z</time>
      </trkpt>
      <trkpt lat="43.52058" lon="5.32207">
        <ele>140.48986816406</ele>
        <time>2019-02-24T14:22:59Z</time>
      </trkpt>
      <trkpt lat="43.52051" lon="5.32218">
        <ele>140.00915527344</ele>
        <time>2019-02-24T14:23:08Z</time>
      </trkpt>
      <trkpt lat="43.52047" lon="5.32228">
        <ele>139.52844238281</ele>
        <time>2019-02-24T14:23:15Z</time>
      </trkpt>
      <trkpt lat="43.52045" lon="5.32233">
        <ele>139.52844238281</ele>
        <time>2019-02-24T14:23:19Z</time>
      </trkpt>
      <trkpt lat="43.52042" lon="5.32237">
        <ele>139.0478515625</ele>
        <time>2019-02-24T14:23:22Z</time>
      </trkpt>
      <trkpt lat="43.5202" lon="5.32258">
        <ele>137.12524414062</ele>
        <time>2019-02-24T14:23:45Z</time>
      </trkpt>
      <trkpt lat="43.52007" lon="5.32275">
        <ele>135.20251464844</ele>
        <time>2019-02-24T14:24:00Z</time>
      </trkpt>
      <trkpt lat="43.51991" lon="5.32301">
        <ele>133.76049804688</ele>
        <time>2019-02-24T14:24:24Z</time>
      </trkpt>
      <trkpt lat="43.51975" lon="5.3232">
        <ele>131.35729980469</ele>
        <time>2019-02-24T14:24:43Z</time>
      </trkpt>
      <trkpt lat="43.51953" lon="5.32339">
        <ele>128.47338867188</ele>
        <time>2019-02-24T14:25:04Z</time>
      </trkpt>
      <trkpt lat="43.51938" lon="5.32364">
        <ele>125.58935546875</ele>
        <time>2019-02-24T14:25:24Z</time>
      </trkpt>
      <trkpt lat="43.51931" lon="5.32391">
        <ele>122.70544433594</ele>
        <time>2019-02-24T14:25:42Z</time>
      </trkpt>
      <trkpt lat="43.51923" lon="5.32418">
        <ele>119.82141113281</ele>
        <time>2019-02-24T14:26:01Z</time>
      </trkpt>
      <trkpt lat="43.51919" lon="5.32446">
        <ele>116.45678710938</ele>
        <time>2019-02-24T14:26:21Z</time>
      </trkpt>
      <trkpt lat="43.51916" lon="5.32465">
        <ele>114.5341796875</ele>
        <time>2019-02-24T14:26:34Z</time>
      </trkpt>
      <trkpt lat="43.51919" lon="5.32474">
        <ele>113.57299804688</ele>
        <time>2019-02-24T14:26:41Z</time>
      </trkpt>
      <trkpt lat="43.51915" lon="5.32487">
        <ele>112.13098144531</ele>
        <time>2019-02-24T14:26:50Z</time>
      </trkpt>
      <trkpt lat="43.51897" lon="5.32517">
        <ele>110.68884277344</ele>
        <time>2019-02-24T14:27:12Z</time>
      </trkpt>
      <trkpt lat="43.51885" lon="5.3253">
        <ele>108.76623535156</ele>
        <time>2019-02-24T14:27:27Z</time>
      </trkpt>
      <trkpt lat="43.51862" lon="5.32526">
        <ele>108.28564453125</ele>
        <time>2019-02-24T14:27:47Z</time>
      </trkpt>
      <trkpt lat="43.51851" lon="5.3253">
        <ele>108.28564453125</ele>
        <time>2019-02-24T14:27:57Z</time>
      </trkpt>
      <trkpt lat="43.51826" lon="5.32529">
        <ele>106.84362792969</ele>
        <time>2019-02-24T14:28:20Z</time>
      </trkpt>
      <trkpt lat="43.518" lon="5.3252">
        <ele>105.40173339844</ele>
        <time>2019-02-24T14:28:41Z</time>
      </trkpt>
      <trkpt lat="43.51781" lon="5.32512">
        <ele>104.92102050781</ele>
        <time>2019-02-24T14:28:56Z</time>
      </trkpt>
      <trkpt lat="43.51761" lon="5.32502">
        <ele>104.4404296875</ele>
        <time>2019-02-24T14:29:17Z</time>
      </trkpt>
      <trkpt lat="43.51761" lon="5.32502">
        <ele>104.4404296875</ele>
        <time>2019-02-24T14:29:18Z</time>
      </trkpt>
      <trkpt lat="43.51755" lon="5.32491">
        <ele>102.99829101562</ele>
        <time>2019-02-24T14:29:31Z</time>
      </trkpt>
      <trkpt lat="43.51755" lon="5.3249">
        <ele>102.99829101562</ele>
        <time>2019-02-24T14:29:32Z</time>
      </trkpt>
      <trkpt lat="43.51755" lon="5.32487">
        <ele>103.47900390625</ele>
        <time>2019-02-24T14:29:34Z</time>
      </trkpt>
      <trkpt lat="43.51752" lon="5.32483">
        <ele>103.47900390625</ele>
        <time>2019-02-24T14:29:37Z</time>
      </trkpt>
      <trkpt lat="43.51741" lon="5.32467">
        <ele>101.55639648438</ele>
        <time>2019-02-24T14:29:54Z</time>
      </trkpt>
      <trkpt lat="43.51736" lon="5.32446">
        <ele>100.11450195312</ele>
        <time>2019-02-24T14:30:10Z</time>
      </trkpt>
      <trkpt lat="43.51742" lon="5.32428">
        <ele>99.6337890625</ele>
        <time>2019-02-24T14:30:22Z</time>
      </trkpt>
      <trkpt lat="43.51747" lon="5.32413">
        <ele>100.11450195312</ele>
        <time>2019-02-24T14:30:35Z</time>
      </trkpt>
      <trkpt lat="43.51748" lon="5.32389">
        <ele>99.153076171875</ele>
        <time>2019-02-24T14:30:52Z</time>
      </trkpt>
      <trkpt lat="43.51755" lon="5.32358">
        <ele>99.153076171875</ele>
        <time>2019-02-24T14:31:11Z</time>
      </trkpt>
      <trkpt lat="43.51761" lon="5.32329">
        <ele>99.153076171875</ele>
        <time>2019-02-24T14:31:31Z</time>
      </trkpt>
      <trkpt lat="43.51768" lon="5.32286">
        <ele>98.19189453125</ele>
        <time>2019-02-24T14:31:55Z</time>
      </trkpt>
      <trkpt lat="43.51774" lon="5.32264">
        <ele>97.711181640625</ele>
        <time>2019-02-24T14:32:11Z</time>
      </trkpt>
      <trkpt lat="43.51779" lon="5.3223">
        <ele>97.711181640625</ele>
        <time>2019-02-24T14:32:32Z</time>
      </trkpt>
      <trkpt lat="43.5178" lon="5.32219">
        <ele>97.711181640625</ele>
        <time>2019-02-24T14:32:40Z</time>
      </trkpt>
      <trkpt lat="43.51789" lon="5.32185">
        <ele>97.23046875</ele>
        <time>2019-02-24T14:33:00Z</time>
      </trkpt>
      <trkpt lat="43.51794" lon="5.32162">
        <ele>96.749877929688</ele>
        <time>2019-02-24T14:33:15Z</time>
      </trkpt>
      <trkpt lat="43.51793" lon="5.32158">
        <ele>96.749877929688</ele>
        <time>2019-02-24T14:33:19Z</time>
      </trkpt>
      <trkpt lat="43.51798" lon="5.32132">
        <ele>96.269287109375</ele>
        <time>2019-02-24T14:33:35Z</time>
      </trkpt>
      <trkpt lat="43.51793" lon="5.32095">
        <ele>95.788452148438</ele>
        <time>2019-02-24T14:33:59Z</time>
      </trkpt>
      <trkpt lat="43.51775" lon="5.32061">
        <ele>94.8271484375</ele>
        <time>2019-02-24T14:34:23Z</time>
      </trkpt>
      <trkpt lat="43.51762" lon="5.32036">
        <ele>94.346557617188</ele>
        <time>2019-02-24T14:34:42Z</time>
      </trkpt>
      <trkpt lat="43.5175" lon="5.31997">
        <ele>93.865844726562</ele>
        <time>2019-02-24T14:35:11Z</time>
      </trkpt>
      <trkpt lat="43.51744" lon="5.31957">
        <ele>92.904541015625</ele>
        <time>2019-02-24T14:35:38Z</time>
      </trkpt>
      <trkpt lat="43.51745" lon="5.31903">
        <ele>91.462524414062</ele>
        <time>2019-02-24T14:36:13Z</time>
      </trkpt>
      <trkpt lat="43.51751" lon="5.31853">
        <ele>90.98193359375</ele>
        <time>2019-02-24T14:36:44Z</time>
      </trkpt>
      <trkpt lat="43.51758" lon="5.31802">
        <ele>90.501342773438</ele>
        <time>2019-02-24T14:37:15Z</time>
      </trkpt>
      <trkpt lat="43.51765" lon="5.31757">
        <ele>89.539916992188</ele>
        <time>2019-02-24T14:37:43Z</time>
      </trkpt>
      <trkpt lat="43.5177" lon="5.31717">
        <ele>90.020629882812</ele>
        <time>2019-02-24T14:38:08Z</time>
      </trkpt>
      <trkpt lat="43.51779" lon="5.31674">
        <ele>88.578735351562</ele>
        <time>2019-02-24T14:38:34Z</time>
      </trkpt>
      <trkpt lat="43.51778" lon="5.31663">
        <ele>88.578735351562</ele>
        <time>2019-02-24T14:38:44Z</time>
      </trkpt>
      <trkpt lat="43.51782" lon="5.31639">
        <ele>88.578735351562</ele>
        <time>2019-02-24T14:38:59Z</time>
      </trkpt>
      <trkpt lat="43.51781" lon="5.31631">
        <ele>88.578735351562</ele>
        <time>2019-02-24T14:39:08Z</time>
      </trkpt>
      <trkpt lat="43.51782" lon="5.31623">
        <ele>88.578735351562</ele>
        <time>2019-02-24T14:39:11Z</time>
      </trkpt>
      <trkpt lat="43.51781" lon="5.31621">
        <ele>88.578735351562</ele>
        <time>2019-02-24T14:39:13Z</time>
      </trkpt>
      <trkpt lat="43.51784" lon="5.31611">
        <ele>88.578735351562</ele>
        <time>2019-02-24T14:39:19Z</time>
      </trkpt>
      <trkpt lat="43.51786" lon="5.31591">
        <ele>88.098022460938</ele>
        <time>2019-02-24T14:39:33Z</time>
      </trkpt>
      <trkpt lat="43.51784" lon="5.31579">
        <ele>88.098022460938</ele>
        <time>2019-02-24T14:39:44Z</time>
      </trkpt>
      <trkpt lat="43.51789" lon="5.31561">
        <ele>88.098022460938</ele>
        <time>2019-02-24T14:39:58Z</time>
      </trkpt>
      <trkpt lat="43.51795" lon="5.31538">
        <ele>88.098022460938</ele>
        <time>2019-02-24T14:40:14Z</time>
      </trkpt>
      <trkpt lat="43.51797" lon="5.31522">
        <ele>88.098022460938</ele>
        <time>2019-02-24T14:40:27Z</time>
      </trkpt>
      <trkpt lat="43.51793" lon="5.31508">
        <ele>88.578735351562</ele>
        <time>2019-02-24T14:40:42Z</time>
      </trkpt>
      <trkpt lat="43.5179" lon="5.31494">
        <ele>88.098022460938</ele>
        <time>2019-02-24T14:40:55Z</time>
      </trkpt>
      <trkpt lat="43.5179" lon="5.31478">
        <ele>87.136596679688</ele>
        <time>2019-02-24T14:41:08Z</time>
      </trkpt>
      <trkpt lat="43.51814" lon="5.31454">
        <ele>86.656005859375</ele>
        <time>2019-02-24T14:41:21Z</time>
      </trkpt>
      <trkpt lat="43.51812" lon="5.31449">
        <ele>86.656005859375</ele>
        <time>2019-02-24T14:41:34Z</time>
      </trkpt>
      <trkpt lat="43.51804" lon="5.31439">
        <ele>86.17529296875</ele>
        <time>2019-02-24T14:41:50Z</time>
      </trkpt>
      <trkpt lat="43.51793" lon="5.31433">
        <ele>86.17529296875</ele>
        <time>2019-02-24T14:42:04Z</time>
      </trkpt>
      <trkpt lat="43.51785" lon="5.31422">
        <ele>85.694580078125</ele>
        <time>2019-02-24T14:42:20Z</time>
      </trkpt>
      <trkpt lat="43.51755" lon="5.31391">
        <ele>86.656005859375</ele>
        <time>2019-02-24T14:42:42Z</time>
      </trkpt>
      <trkpt lat="43.51751" lon="5.3139">
        <ele>85.694580078125</ele>
        <time>2019-02-24T14:42:48Z</time>
      </trkpt>
      <trkpt lat="43.51737" lon="5.31387">
        <ele>86.17529296875</ele>
        <time>2019-02-24T14:43:02Z</time>
      </trkpt>
      <trkpt lat="43.51724" lon="5.31362">
        <ele>86.17529296875</ele>
        <time>2019-02-24T14:43:14Z</time>
      </trkpt>
      <trkpt lat="43.51708" lon="5.31338">
        <ele>85.694580078125</ele>
        <time>2019-02-24T14:43:36Z</time>
      </trkpt>
      <trkpt lat="43.51692" lon="5.31332">
        <ele>85.694580078125</ele>
        <time>2019-02-24T14:43:53Z</time>
      </trkpt>
      <trkpt lat="43.51688" lon="5.31334">
        <ele>85.213989257812</ele>
        <time>2019-02-24T14:44:04Z</time>
      </trkpt>
      <trkpt lat="43.51685" lon="5.31326">
        <ele>85.213989257812</ele>
        <time>2019-02-24T14:44:12Z</time>
      </trkpt>
      <trkpt lat="43.51678" lon="5.31323">
        <ele>85.694580078125</ele>
        <time>2019-02-24T14:44:15Z</time>
      </trkpt>
      <trkpt lat="43.5166" lon="5.31319">
        <ele>85.694580078125</ele>
        <time>2019-02-24T14:44:26Z</time>
      </trkpt>
      <trkpt lat="43.51659" lon="5.31319">
        <ele>86.17529296875</ele>
        <time>2019-02-24T14:44:27Z</time>
      </trkpt>
      <trkpt lat="43.51644" lon="5.31321">
        <ele>86.17529296875</ele>
        <time>2019-02-24T14:44:37Z</time>
      </trkpt>
      <trkpt lat="43.51643" lon="5.31324">
        <ele>87.136596679688</ele>
        <time>2019-02-24T14:44:39Z</time>
      </trkpt>
      <trkpt lat="43.51641" lon="5.31362">
        <ele>86.656005859375</ele>
        <time>2019-02-24T14:45:01Z</time>
      </trkpt>
      <trkpt lat="43.51635" lon="5.31407">
        <ele>86.656005859375</ele>
        <time>2019-02-24T14:45:28Z</time>
      </trkpt>
      <trkpt lat="43.51637" lon="5.31427">
        <ele>86.656005859375</ele>
        <time>2019-02-24T14:45:42Z</time>
      </trkpt>
      <trkpt lat="43.51638" lon="5.31431">
        <ele>86.656005859375</ele>
        <time>2019-02-24T14:45:53Z</time>
      </trkpt>
    </trkseg>
  </trk>
</gpx>